<?xml version="1.0" encoding="UTF-8" standalone="no" ?>
<gpx xmlns="http://www.topografix.com/GPX/1/1" xmlns:xsi="http://www.w3.org/2001/XMLSchema-instance" xsi:schemaLocation="http://www.topografix.com/GPX/1/1 http://www.topografix.com/GPX/1/1/gpx.xsd" version="1.1" creator="VisuGPX - https://www.visugpx.com">
  <metadata>
    <name>Tardevant en boucle</name>
    <desc><![CDATA[Belle boucle pour faire le sommet du Tardevant. Le petit passage permettant de passer de la combe du tardevant à la combe de la grande féclaz peut paraître impressionnant au premier abord, mais il est relativement court.

La combe de la grande féclaz est la combe la plus enneigée des aravis ; il y a souvent un névé tardif]]></desc>
  </metadata>
  <trk>
    <name><![CDATA[tardevant]]></name>
    <desc><![CDATA[<p>Heure de départ: 08/06/2018 08:21<br/>Heure d'arrivée: 08/06/2018 13:23<br/>Distance: 14,1 km (05:01)<br/>Temps déplacement: 04:15<br/>Vitesse moyenne: 2,81 km/h<br/>Vitesse moyenne mouv.: 3,32 km/h<br/>Vitesse Max.: 44,58 km/h<br/>Altitude minimale: 1445 m<br/>Altitude maximale: 2505 m<br/>Vitesse de montée: 446,8 m/h<br/>Vitesse de descente: -437,5 m/h<br/>Gain d'altitude: 1110 m<br/>Perte d'altitude: -1101 m<br/>Temps de montée: 02:29<br/>Temps de descente: 02:31<br/></p><hr align="center" width="480" style="height: 2px; width: 517px"/>]]></desc>
    <trkseg>
      <trkpt lat="45.92253" lon="6.4841">
        <ele>1445.05</ele>
        <time>2018-08-06T06:21:22Z</time>
      </trkpt>
      <trkpt lat="45.92234" lon="6.48414">
        <ele>1448.31</ele>
        <time>2018-08-06T06:21:44Z</time>
      </trkpt>
      <trkpt lat="45.9222" lon="6.4843">
        <ele>1449.17</ele>
        <time>2018-08-06T06:22:00Z</time>
      </trkpt>
      <trkpt lat="45.92205" lon="6.48448">
        <ele>1450.8</ele>
        <time>2018-08-06T06:22:27Z</time>
      </trkpt>
      <trkpt lat="45.9219" lon="6.48465">
        <ele>1452.03</ele>
        <time>2018-08-06T06:22:37Z</time>
      </trkpt>
      <trkpt lat="45.92175" lon="6.48482">
        <ele>1454.58</ele>
        <time>2018-08-06T06:22:54Z</time>
      </trkpt>
      <trkpt lat="45.92162" lon="6.48501">
        <ele>1458.82</ele>
        <time>2018-08-06T06:23:11Z</time>
      </trkpt>
      <trkpt lat="45.92152" lon="6.48524">
        <ele>1461.34</ele>
        <time>2018-08-06T06:23:28Z</time>
      </trkpt>
      <trkpt lat="45.9215" lon="6.48551">
        <ele>1462.35</ele>
        <time>2018-08-06T06:23:46Z</time>
      </trkpt>
      <trkpt lat="45.92147" lon="6.48577">
        <ele>1462.88</ele>
        <time>2018-08-06T06:24:01Z</time>
      </trkpt>
      <trkpt lat="45.92142" lon="6.48604">
        <ele>1464.72</ele>
        <time>2018-08-06T06:24:15Z</time>
      </trkpt>
      <trkpt lat="45.92133" lon="6.48627">
        <ele>1465.48</ele>
        <time>2018-08-06T06:24:29Z</time>
      </trkpt>
      <trkpt lat="45.92123" lon="6.4865">
        <ele>1466.19</ele>
        <time>2018-08-06T06:24:42Z</time>
      </trkpt>
      <trkpt lat="45.9213" lon="6.48674">
        <ele>1466.48</ele>
        <time>2018-08-06T06:24:57Z</time>
      </trkpt>
      <trkpt lat="45.92144" lon="6.48692">
        <ele>1466.61</ele>
        <time>2018-08-06T06:25:11Z</time>
      </trkpt>
      <trkpt lat="45.92156" lon="6.48712">
        <ele>1466.16</ele>
        <time>2018-08-06T06:25:25Z</time>
      </trkpt>
      <trkpt lat="45.92165" lon="6.48735">
        <ele>1464.85</ele>
        <time>2018-08-06T06:25:40Z</time>
      </trkpt>
      <trkpt lat="45.92172" lon="6.48759">
        <ele>1462.48</ele>
        <time>2018-08-06T06:25:54Z</time>
      </trkpt>
      <trkpt lat="45.92178" lon="6.48784">
        <ele>1460.99</ele>
        <time>2018-08-06T06:26:07Z</time>
      </trkpt>
      <trkpt lat="45.9218" lon="6.48811">
        <ele>1459.78</ele>
        <time>2018-08-06T06:26:20Z</time>
      </trkpt>
      <trkpt lat="45.92173" lon="6.48838">
        <ele>1458.28</ele>
        <time>2018-08-06T06:26:34Z</time>
      </trkpt>
      <trkpt lat="45.92164" lon="6.48861">
        <ele>1456.11</ele>
        <time>2018-08-06T06:26:49Z</time>
      </trkpt>
      <trkpt lat="45.9217" lon="6.48886">
        <ele>1454.79</ele>
        <time>2018-08-06T06:27:03Z</time>
      </trkpt>
      <trkpt lat="45.92185" lon="6.48901">
        <ele>1454.1</ele>
        <time>2018-08-06T06:27:12Z</time>
      </trkpt>
      <trkpt lat="45.922" lon="6.48915">
        <ele>1454.1</ele>
        <time>2018-08-06T06:27:26Z</time>
      </trkpt>
      <trkpt lat="45.92215" lon="6.48931">
        <ele>1453.69</ele>
        <time>2018-08-06T06:27:40Z</time>
      </trkpt>
      <trkpt lat="45.9223" lon="6.48946">
        <ele>1453.53</ele>
        <time>2018-08-06T06:27:55Z</time>
      </trkpt>
      <trkpt lat="45.92242" lon="6.48967">
        <ele>1453.05</ele>
        <time>2018-08-06T06:28:13Z</time>
      </trkpt>
      <trkpt lat="45.9225" lon="6.48991">
        <ele>1453.25</ele>
        <time>2018-08-06T06:28:31Z</time>
      </trkpt>
      <trkpt lat="45.92265" lon="6.49007">
        <ele>1453.64</ele>
        <time>2018-08-06T06:28:45Z</time>
      </trkpt>
      <trkpt lat="45.9228" lon="6.49024">
        <ele>1455.43</ele>
        <time>2018-08-06T06:29:04Z</time>
      </trkpt>
      <trkpt lat="45.9229" lon="6.49047">
        <ele>1456.93</ele>
        <time>2018-08-06T06:29:24Z</time>
      </trkpt>
      <trkpt lat="45.92307" lon="6.49061">
        <ele>1458.56</ele>
        <time>2018-08-06T06:29:42Z</time>
      </trkpt>
      <trkpt lat="45.92324" lon="6.49069">
        <ele>1461.64</ele>
        <time>2018-08-06T06:29:58Z</time>
      </trkpt>
      <trkpt lat="45.92342" lon="6.49078">
        <ele>1464.38</ele>
        <time>2018-08-06T06:30:15Z</time>
      </trkpt>
      <trkpt lat="45.92359" lon="6.49089">
        <ele>1465.99</ele>
        <time>2018-08-06T06:30:30Z</time>
      </trkpt>
      <trkpt lat="45.92373" lon="6.49105">
        <ele>1467.89</ele>
        <time>2018-08-06T06:30:47Z</time>
      </trkpt>
      <trkpt lat="45.92388" lon="6.49123">
        <ele>1470.58</ele>
        <time>2018-08-06T06:31:05Z</time>
      </trkpt>
      <trkpt lat="45.92406" lon="6.49113">
        <ele>1475.56</ele>
        <time>2018-08-06T06:31:37Z</time>
      </trkpt>
      <trkpt lat="45.92424" lon="6.49109">
        <ele>1477.25</ele>
        <time>2018-08-06T06:32:00Z</time>
      </trkpt>
      <trkpt lat="45.92441" lon="6.49118">
        <ele>1478.56</ele>
        <time>2018-08-06T06:32:20Z</time>
      </trkpt>
      <trkpt lat="45.92456" lon="6.49135">
        <ele>1479.08</ele>
        <time>2018-08-06T06:32:34Z</time>
      </trkpt>
      <trkpt lat="45.92468" lon="6.49155">
        <ele>1481.62</ele>
        <time>2018-08-06T06:32:51Z</time>
      </trkpt>
      <trkpt lat="45.92482" lon="6.49173">
        <ele>1484.53</ele>
        <time>2018-08-06T06:33:06Z</time>
      </trkpt>
      <trkpt lat="45.92496" lon="6.4919">
        <ele>1486.85</ele>
        <time>2018-08-06T06:33:19Z</time>
      </trkpt>
      <trkpt lat="45.92513" lon="6.492">
        <ele>1490.56</ele>
        <time>2018-08-06T06:33:36Z</time>
      </trkpt>
      <trkpt lat="45.9253" lon="6.49208">
        <ele>1494.57</ele>
        <time>2018-08-06T06:33:52Z</time>
      </trkpt>
      <trkpt lat="45.92549" lon="6.49219">
        <ele>1496.71</ele>
        <time>2018-08-06T06:34:09Z</time>
      </trkpt>
      <trkpt lat="45.92568" lon="6.49223">
        <ele>1497.02</ele>
        <time>2018-08-06T06:34:24Z</time>
      </trkpt>
      <trkpt lat="45.92587" lon="6.49223">
        <ele>1497</ele>
        <time>2018-08-06T06:34:40Z</time>
      </trkpt>
      <trkpt lat="45.92605" lon="6.49226">
        <ele>1496.19</ele>
        <time>2018-08-06T06:34:53Z</time>
      </trkpt>
      <trkpt lat="45.92623" lon="6.49234">
        <ele>1494.78</ele>
        <time>2018-08-06T06:35:07Z</time>
      </trkpt>
      <trkpt lat="45.92635" lon="6.49253">
        <ele>1493.2</ele>
        <time>2018-08-06T06:35:22Z</time>
      </trkpt>
      <trkpt lat="45.92652" lon="6.49264">
        <ele>1492.08</ele>
        <time>2018-08-06T06:35:38Z</time>
      </trkpt>
      <trkpt lat="45.9267" lon="6.49269">
        <ele>1491.89</ele>
        <time>2018-08-06T06:35:53Z</time>
      </trkpt>
      <trkpt lat="45.92687" lon="6.49281">
        <ele>1492.34</ele>
        <time>2018-08-06T06:36:08Z</time>
      </trkpt>
      <trkpt lat="45.92699" lon="6.49299">
        <ele>1491.76</ele>
        <time>2018-08-06T06:36:21Z</time>
      </trkpt>
      <trkpt lat="45.92709" lon="6.49323">
        <ele>1491.29</ele>
        <time>2018-08-06T06:36:39Z</time>
      </trkpt>
      <trkpt lat="45.92714" lon="6.49348">
        <ele>1491.41</ele>
        <time>2018-08-06T06:36:55Z</time>
      </trkpt>
      <trkpt lat="45.9272" lon="6.49375">
        <ele>1492.84</ele>
        <time>2018-08-06T06:37:14Z</time>
      </trkpt>
      <trkpt lat="45.92728" lon="6.494">
        <ele>1493.57</ele>
        <time>2018-08-06T06:37:29Z</time>
      </trkpt>
      <trkpt lat="45.92736" lon="6.49424">
        <ele>1495.26</ele>
        <time>2018-08-06T06:37:44Z</time>
      </trkpt>
      <trkpt lat="45.92747" lon="6.49445">
        <ele>1495.96</ele>
        <time>2018-08-06T06:37:59Z</time>
      </trkpt>
      <trkpt lat="45.92762" lon="6.49463">
        <ele>1495.29</ele>
        <time>2018-08-06T06:38:12Z</time>
      </trkpt>
      <trkpt lat="45.92749" lon="6.49482">
        <ele>1495.07</ele>
        <time>2018-08-06T06:38:31Z</time>
      </trkpt>
      <trkpt lat="45.92731" lon="6.49473">
        <ele>1495.8</ele>
        <time>2018-08-06T06:38:52Z</time>
      </trkpt>
      <trkpt lat="45.92715" lon="6.49461">
        <ele>1496.24</ele>
        <time>2018-08-06T06:39:08Z</time>
      </trkpt>
      <trkpt lat="45.92698" lon="6.4945">
        <ele>1496.85</ele>
        <time>2018-08-06T06:39:21Z</time>
      </trkpt>
      <trkpt lat="45.9268" lon="6.49454">
        <ele>1498.04</ele>
        <time>2018-08-06T06:39:38Z</time>
      </trkpt>
      <trkpt lat="45.92667" lon="6.49474">
        <ele>1498.74</ele>
        <time>2018-08-06T06:39:52Z</time>
      </trkpt>
      <trkpt lat="45.92652" lon="6.49489">
        <ele>1499.4</ele>
        <time>2018-08-06T06:40:07Z</time>
      </trkpt>
      <trkpt lat="45.92645" lon="6.49515">
        <ele>1499.49</ele>
        <time>2018-08-06T06:40:23Z</time>
      </trkpt>
      <trkpt lat="45.92641" lon="6.49542">
        <ele>1500.07</ele>
        <time>2018-08-06T06:40:38Z</time>
      </trkpt>
      <trkpt lat="45.92644" lon="6.49568">
        <ele>1500.02</ele>
        <time>2018-08-06T06:40:54Z</time>
      </trkpt>
      <trkpt lat="45.9264" lon="6.49594">
        <ele>1500.21</ele>
        <time>2018-08-06T06:41:13Z</time>
      </trkpt>
      <trkpt lat="45.92642" lon="6.4962">
        <ele>1501.63</ele>
        <time>2018-08-06T06:41:34Z</time>
      </trkpt>
      <trkpt lat="45.92632" lon="6.49642">
        <ele>1504.33</ele>
        <time>2018-08-06T06:41:51Z</time>
      </trkpt>
      <trkpt lat="45.9263" lon="6.49668">
        <ele>1507.52</ele>
        <time>2018-08-06T06:42:11Z</time>
      </trkpt>
      <trkpt lat="45.92629" lon="6.49694">
        <ele>1511.29</ele>
        <time>2018-08-06T06:42:35Z</time>
      </trkpt>
      <trkpt lat="45.92635" lon="6.4972">
        <ele>1513.21</ele>
        <time>2018-08-06T06:42:53Z</time>
      </trkpt>
      <trkpt lat="45.92642" lon="6.49744">
        <ele>1517.18</ele>
        <time>2018-08-06T06:43:16Z</time>
      </trkpt>
      <trkpt lat="45.92654" lon="6.49764">
        <ele>1519.41</ele>
        <time>2018-08-06T06:43:43Z</time>
      </trkpt>
      <trkpt lat="45.92658" lon="6.4979">
        <ele>1521.93</ele>
        <time>2018-08-06T06:44:12Z</time>
      </trkpt>
      <trkpt lat="45.92667" lon="6.49812">
        <ele>1524.61</ele>
        <time>2018-08-06T06:44:34Z</time>
      </trkpt>
      <trkpt lat="45.92676" lon="6.49835">
        <ele>1529.08</ele>
        <time>2018-08-06T06:45:02Z</time>
      </trkpt>
      <trkpt lat="45.92681" lon="6.49861">
        <ele>1530.86</ele>
        <time>2018-08-06T06:45:23Z</time>
      </trkpt>
      <trkpt lat="45.92679" lon="6.49886">
        <ele>1531.73</ele>
        <time>2018-08-06T06:45:44Z</time>
      </trkpt>
      <trkpt lat="45.92679" lon="6.49913">
        <ele>1532.98</ele>
        <time>2018-08-06T06:46:04Z</time>
      </trkpt>
      <trkpt lat="45.92677" lon="6.4994">
        <ele>1536.52</ele>
        <time>2018-08-06T06:46:42Z</time>
      </trkpt>
      <trkpt lat="45.92677" lon="6.49966">
        <ele>1539.4</ele>
        <time>2018-08-06T06:47:12Z</time>
      </trkpt>
      <trkpt lat="45.92678" lon="6.49992">
        <ele>1540.67</ele>
        <time>2018-08-06T06:47:37Z</time>
      </trkpt>
      <trkpt lat="45.9268" lon="6.50019">
        <ele>1541.89</ele>
        <time>2018-08-06T06:48:06Z</time>
      </trkpt>
      <trkpt lat="45.92686" lon="6.50044">
        <ele>1544.1</ele>
        <time>2018-08-06T06:48:37Z</time>
      </trkpt>
      <trkpt lat="45.92699" lon="6.50061">
        <ele>1548.97</ele>
        <time>2018-08-06T06:49:09Z</time>
      </trkpt>
      <trkpt lat="45.92697" lon="6.50087">
        <ele>1556.44</ele>
        <time>2018-08-06T06:49:44Z</time>
      </trkpt>
      <trkpt lat="45.92714" lon="6.50097">
        <ele>1564</ele>
        <time>2018-08-06T06:50:25Z</time>
      </trkpt>
      <trkpt lat="45.9273" lon="6.50109">
        <ele>1565.33</ele>
        <time>2018-08-06T06:50:47Z</time>
      </trkpt>
      <trkpt lat="45.92741" lon="6.50131">
        <ele>1567.76</ele>
        <time>2018-08-06T06:51:04Z</time>
      </trkpt>
      <trkpt lat="45.92754" lon="6.5015">
        <ele>1570.78</ele>
        <time>2018-08-06T06:51:26Z</time>
      </trkpt>
      <trkpt lat="45.92768" lon="6.50167">
        <ele>1573.94</ele>
        <time>2018-08-06T06:51:48Z</time>
      </trkpt>
      <trkpt lat="45.92779" lon="6.50189">
        <ele>1576.88</ele>
        <time>2018-08-06T06:52:17Z</time>
      </trkpt>
      <trkpt lat="45.92794" lon="6.50205">
        <ele>1580.36</ele>
        <time>2018-08-06T06:52:38Z</time>
      </trkpt>
      <trkpt lat="45.92807" lon="6.50224">
        <ele>1584.36</ele>
        <time>2018-08-06T06:53:03Z</time>
      </trkpt>
      <trkpt lat="45.92814" lon="6.5025">
        <ele>1589.41</ele>
        <time>2018-08-06T06:53:30Z</time>
      </trkpt>
      <trkpt lat="45.92817" lon="6.50276">
        <ele>1594.87</ele>
        <time>2018-08-06T06:54:06Z</time>
      </trkpt>
      <trkpt lat="45.92831" lon="6.50292">
        <ele>1599.66</ele>
        <time>2018-08-06T06:54:49Z</time>
      </trkpt>
      <trkpt lat="45.92846" lon="6.50308">
        <ele>1601.9</ele>
        <time>2018-08-06T06:55:21Z</time>
      </trkpt>
      <trkpt lat="45.92858" lon="6.50327">
        <ele>1609.3</ele>
        <time>2018-08-06T06:56:03Z</time>
      </trkpt>
      <trkpt lat="45.92865" lon="6.50351">
        <ele>1614.25</ele>
        <time>2018-08-06T06:56:31Z</time>
      </trkpt>
      <trkpt lat="45.92877" lon="6.50371">
        <ele>1618.65</ele>
        <time>2018-08-06T06:56:53Z</time>
      </trkpt>
      <trkpt lat="45.92887" lon="6.50392">
        <ele>1625.5</ele>
        <time>2018-08-06T06:57:23Z</time>
      </trkpt>
      <trkpt lat="45.92874" lon="6.50411">
        <ele>1634.16</ele>
        <time>2018-08-06T06:58:26Z</time>
      </trkpt>
      <trkpt lat="45.92857" lon="6.50424">
        <ele>1638.47</ele>
        <time>2018-08-06T06:58:50Z</time>
      </trkpt>
      <trkpt lat="45.9284" lon="6.50433">
        <ele>1644.12</ele>
        <time>2018-08-06T06:59:24Z</time>
      </trkpt>
      <trkpt lat="45.92833" lon="6.50457">
        <ele>1647.43</ele>
        <time>2018-08-06T06:59:49Z</time>
      </trkpt>
      <trkpt lat="45.92844" lon="6.50479">
        <ele>1652.95</ele>
        <time>2018-08-06T07:00:27Z</time>
      </trkpt>
      <trkpt lat="45.92861" lon="6.50489">
        <ele>1659.33</ele>
        <time>2018-08-06T07:00:56Z</time>
      </trkpt>
      <trkpt lat="45.9288" lon="6.50487">
        <ele>1663.15</ele>
        <time>2018-08-06T07:01:13Z</time>
      </trkpt>
      <trkpt lat="45.92898" lon="6.50485">
        <ele>1667.97</ele>
        <time>2018-08-06T07:01:33Z</time>
      </trkpt>
      <trkpt lat="45.92913" lon="6.50499">
        <ele>1671.48</ele>
        <time>2018-08-06T07:01:58Z</time>
      </trkpt>
      <trkpt lat="45.92922" lon="6.50521">
        <ele>1673.95</ele>
        <time>2018-08-06T07:02:22Z</time>
      </trkpt>
      <trkpt lat="45.92936" lon="6.50538">
        <ele>1675.17</ele>
        <time>2018-08-06T07:02:37Z</time>
      </trkpt>
      <trkpt lat="45.92945" lon="6.50563">
        <ele>1675.4</ele>
        <time>2018-08-06T07:02:53Z</time>
      </trkpt>
      <trkpt lat="45.9295" lon="6.50589">
        <ele>1675.92</ele>
        <time>2018-08-06T07:03:11Z</time>
      </trkpt>
      <trkpt lat="45.92962" lon="6.50609">
        <ele>1676.29</ele>
        <time>2018-08-06T07:03:30Z</time>
      </trkpt>
      <trkpt lat="45.92975" lon="6.5063">
        <ele>1676.44</ele>
        <time>2018-08-06T07:03:48Z</time>
      </trkpt>
      <trkpt lat="45.92991" lon="6.50644">
        <ele>1675.64</ele>
        <time>2018-08-06T07:04:05Z</time>
      </trkpt>
      <trkpt lat="45.93006" lon="6.50658">
        <ele>1675.24</ele>
        <time>2018-08-06T07:04:20Z</time>
      </trkpt>
      <trkpt lat="45.93021" lon="6.50674">
        <ele>1675.91</ele>
        <time>2018-08-06T07:04:39Z</time>
      </trkpt>
      <trkpt lat="45.93031" lon="6.50696">
        <ele>1677.51</ele>
        <time>2018-08-06T07:04:58Z</time>
      </trkpt>
      <trkpt lat="45.93037" lon="6.5072">
        <ele>1682.01</ele>
        <time>2018-08-06T07:05:24Z</time>
      </trkpt>
      <trkpt lat="45.93044" lon="6.50746">
        <ele>1687.35</ele>
        <time>2018-08-06T07:05:54Z</time>
      </trkpt>
      <trkpt lat="45.93058" lon="6.50762">
        <ele>1689.89</ele>
        <time>2018-08-06T07:06:12Z</time>
      </trkpt>
      <trkpt lat="45.93074" lon="6.50777">
        <ele>1692.16</ele>
        <time>2018-08-06T07:06:31Z</time>
      </trkpt>
      <trkpt lat="45.93084" lon="6.508">
        <ele>1695.02</ele>
        <time>2018-08-06T07:06:55Z</time>
      </trkpt>
      <trkpt lat="45.93091" lon="6.50825">
        <ele>1697.3</ele>
        <time>2018-08-06T07:07:18Z</time>
      </trkpt>
      <trkpt lat="45.93097" lon="6.5085">
        <ele>1701.77</ele>
        <time>2018-08-06T07:07:48Z</time>
      </trkpt>
      <trkpt lat="45.93101" lon="6.50876">
        <ele>1707.68</ele>
        <time>2018-08-06T07:08:29Z</time>
      </trkpt>
      <trkpt lat="45.93109" lon="6.50899">
        <ele>1712.95</ele>
        <time>2018-08-06T07:09:01Z</time>
      </trkpt>
      <trkpt lat="45.93118" lon="6.50922">
        <ele>1720.3</ele>
        <time>2018-08-06T07:09:42Z</time>
      </trkpt>
      <trkpt lat="45.93125" lon="6.50946">
        <ele>1725</ele>
        <time>2018-08-06T07:10:14Z</time>
      </trkpt>
      <trkpt lat="45.93135" lon="6.5097">
        <ele>1730.39</ele>
        <time>2018-08-06T07:10:43Z</time>
      </trkpt>
      <trkpt lat="45.93143" lon="6.50996">
        <ele>1734.19</ele>
        <time>2018-08-06T07:11:21Z</time>
      </trkpt>
      <trkpt lat="45.93125" lon="6.51001">
        <ele>1744.3</ele>
        <time>2018-08-06T07:12:27Z</time>
      </trkpt>
      <trkpt lat="45.93122" lon="6.51027">
        <ele>1752.31</ele>
        <time>2018-08-06T07:13:14Z</time>
      </trkpt>
      <trkpt lat="45.93135" lon="6.51047">
        <ele>1756.99</ele>
        <time>2018-08-06T07:13:42Z</time>
      </trkpt>
      <trkpt lat="45.93145" lon="6.51069">
        <ele>1759.02</ele>
        <time>2018-08-06T07:14:05Z</time>
      </trkpt>
      <trkpt lat="45.9314" lon="6.51094">
        <ele>1762.72</ele>
        <time>2018-08-06T07:14:44Z</time>
      </trkpt>
      <trkpt lat="45.93119" lon="6.51095">
        <ele>1768.17</ele>
        <time>2018-08-06T07:15:31Z</time>
      </trkpt>
      <trkpt lat="45.93101" lon="6.51095">
        <ele>1769.46</ele>
        <time>2018-08-06T07:15:57Z</time>
      </trkpt>
      <trkpt lat="45.93084" lon="6.51084">
        <ele>1774.64</ele>
        <time>2018-08-06T07:16:27Z</time>
      </trkpt>
      <trkpt lat="45.93067" lon="6.51076">
        <ele>1776.52</ele>
        <time>2018-08-06T07:16:47Z</time>
      </trkpt>
      <trkpt lat="45.93048" lon="6.51075">
        <ele>1778.29</ele>
        <time>2018-08-06T07:17:12Z</time>
      </trkpt>
      <trkpt lat="45.93033" lon="6.51089">
        <ele>1777.48</ele>
        <time>2018-08-06T07:17:30Z</time>
      </trkpt>
      <trkpt lat="45.93021" lon="6.51109">
        <ele>1779.47</ele>
        <time>2018-08-06T07:17:55Z</time>
      </trkpt>
      <trkpt lat="45.93007" lon="6.51126">
        <ele>1786.24</ele>
        <time>2018-08-06T07:18:25Z</time>
      </trkpt>
      <trkpt lat="45.92994" lon="6.51106">
        <ele>1792.61</ele>
        <time>2018-08-06T07:18:58Z</time>
      </trkpt>
      <trkpt lat="45.92976" lon="6.51106">
        <ele>1796.76</ele>
        <time>2018-08-06T07:19:19Z</time>
      </trkpt>
      <trkpt lat="45.92982" lon="6.51133">
        <ele>1800.68</ele>
        <time>2018-08-06T07:19:45Z</time>
      </trkpt>
      <trkpt lat="45.92986" lon="6.51158">
        <ele>1805.25</ele>
        <time>2018-08-06T07:20:08Z</time>
      </trkpt>
      <trkpt lat="45.92988" lon="6.51184">
        <ele>1810.45</ele>
        <time>2018-08-06T07:20:31Z</time>
      </trkpt>
      <trkpt lat="45.92977" lon="6.51204">
        <ele>1817.71</ele>
        <time>2018-08-06T07:21:24Z</time>
      </trkpt>
      <trkpt lat="45.92969" lon="6.51227">
        <ele>1819.83</ele>
        <time>2018-08-06T07:22:00Z</time>
      </trkpt>
      <trkpt lat="45.92956" lon="6.51246">
        <ele>1821.79</ele>
        <time>2018-08-06T07:22:24Z</time>
      </trkpt>
      <trkpt lat="45.92948" lon="6.51269">
        <ele>1823.36</ele>
        <time>2018-08-06T07:22:55Z</time>
      </trkpt>
      <trkpt lat="45.92937" lon="6.5129">
        <ele>1828.68</ele>
        <time>2018-08-06T07:23:23Z</time>
      </trkpt>
      <trkpt lat="45.92929" lon="6.51314">
        <ele>1834.35</ele>
        <time>2018-08-06T07:23:47Z</time>
      </trkpt>
      <trkpt lat="45.92923" lon="6.51339">
        <ele>1841.96</ele>
        <time>2018-08-06T07:24:30Z</time>
      </trkpt>
      <trkpt lat="45.92913" lon="6.5136">
        <ele>1855.83</ele>
        <time>2018-08-06T07:25:19Z</time>
      </trkpt>
      <trkpt lat="45.92899" lon="6.51377">
        <ele>1861.53</ele>
        <time>2018-08-06T07:25:55Z</time>
      </trkpt>
      <trkpt lat="45.92884" lon="6.51395">
        <ele>1863.86</ele>
        <time>2018-08-06T07:26:18Z</time>
      </trkpt>
      <trkpt lat="45.92871" lon="6.51413">
        <ele>1866.95</ele>
        <time>2018-08-06T07:27:02Z</time>
      </trkpt>
      <trkpt lat="45.92859" lon="6.51436">
        <ele>1872.7</ele>
        <time>2018-08-06T07:27:35Z</time>
      </trkpt>
      <trkpt lat="45.92846" lon="6.51455">
        <ele>1875.27</ele>
        <time>2018-08-06T07:28:27Z</time>
      </trkpt>
      <trkpt lat="45.92834" lon="6.51475">
        <ele>1887.55</ele>
        <time>2018-08-06T07:29:33Z</time>
      </trkpt>
      <trkpt lat="45.92831" lon="6.515">
        <ele>1903.34</ele>
        <time>2018-08-06T07:30:47Z</time>
      </trkpt>
      <trkpt lat="45.92843" lon="6.51521">
        <ele>1908.38</ele>
        <time>2018-08-06T07:31:13Z</time>
      </trkpt>
      <trkpt lat="45.92845" lon="6.51547">
        <ele>1911.11</ele>
        <time>2018-08-06T07:31:46Z</time>
      </trkpt>
      <trkpt lat="45.92854" lon="6.51569">
        <ele>1916.78</ele>
        <time>2018-08-06T07:32:20Z</time>
      </trkpt>
      <trkpt lat="45.92863" lon="6.51593">
        <ele>1920.16</ele>
        <time>2018-08-06T07:32:49Z</time>
      </trkpt>
      <trkpt lat="45.92868" lon="6.51619">
        <ele>1928.26</ele>
        <time>2018-08-06T07:33:31Z</time>
      </trkpt>
      <trkpt lat="45.92872" lon="6.51645">
        <ele>1939.47</ele>
        <time>2018-08-06T07:34:13Z</time>
      </trkpt>
      <trkpt lat="45.92878" lon="6.5167">
        <ele>1946.31</ele>
        <time>2018-08-06T07:34:43Z</time>
      </trkpt>
      <trkpt lat="45.9286" lon="6.51672">
        <ele>1954.12</ele>
        <time>2018-08-06T07:36:26Z</time>
      </trkpt>
      <trkpt lat="45.92844" lon="6.51658">
        <ele>1957.05</ele>
        <time>2018-08-06T07:36:58Z</time>
      </trkpt>
      <trkpt lat="45.92828" lon="6.51642">
        <ele>1961.86</ele>
        <time>2018-08-06T07:37:18Z</time>
      </trkpt>
      <trkpt lat="45.92811" lon="6.51632">
        <ele>1971.46</ele>
        <time>2018-08-06T07:37:57Z</time>
      </trkpt>
      <trkpt lat="45.928" lon="6.51653">
        <ele>1974.71</ele>
        <time>2018-08-06T07:38:21Z</time>
      </trkpt>
      <trkpt lat="45.92783" lon="6.51665">
        <ele>1975.78</ele>
        <time>2018-08-06T07:38:56Z</time>
      </trkpt>
      <trkpt lat="45.92768" lon="6.51681">
        <ele>1975.99</ele>
        <time>2018-08-06T07:39:17Z</time>
      </trkpt>
      <trkpt lat="45.92757" lon="6.51701">
        <ele>1978.46</ele>
        <time>2018-08-06T07:39:38Z</time>
      </trkpt>
      <trkpt lat="45.92742" lon="6.51718">
        <ele>1978.41</ele>
        <time>2018-08-06T07:40:24Z</time>
      </trkpt>
      <trkpt lat="45.92745" lon="6.51744">
        <ele>1983.53</ele>
        <time>2018-08-06T07:41:10Z</time>
      </trkpt>
      <trkpt lat="45.92746" lon="6.5177">
        <ele>1996.48</ele>
        <time>2018-08-06T07:42:12Z</time>
      </trkpt>
      <trkpt lat="45.9275" lon="6.51795">
        <ele>2006.19</ele>
        <time>2018-08-06T07:43:08Z</time>
      </trkpt>
      <trkpt lat="45.92756" lon="6.5182">
        <ele>2024.77</ele>
        <time>2018-08-06T07:44:15Z</time>
      </trkpt>
      <trkpt lat="45.92738" lon="6.51819">
        <ele>2039.67</ele>
        <time>2018-08-06T07:44:59Z</time>
      </trkpt>
      <trkpt lat="45.92723" lon="6.51835">
        <ele>2053.04</ele>
        <time>2018-08-06T07:45:54Z</time>
      </trkpt>
      <trkpt lat="45.92704" lon="6.51831">
        <ele>2069.29</ele>
        <time>2018-08-06T07:47:29Z</time>
      </trkpt>
      <trkpt lat="45.92686" lon="6.51821">
        <ele>2069.94</ele>
        <time>2018-08-06T07:47:56Z</time>
      </trkpt>
      <trkpt lat="45.9267" lon="6.51809">
        <ele>2071.83</ele>
        <time>2018-08-06T07:48:11Z</time>
      </trkpt>
      <trkpt lat="45.92652" lon="6.518">
        <ele>2073.65</ele>
        <time>2018-08-06T07:48:25Z</time>
      </trkpt>
      <trkpt lat="45.92639" lon="6.5178">
        <ele>2081.56</ele>
        <time>2018-08-06T07:48:58Z</time>
      </trkpt>
      <trkpt lat="45.92627" lon="6.5176">
        <ele>2086.19</ele>
        <time>2018-08-06T07:49:29Z</time>
      </trkpt>
      <trkpt lat="45.92615" lon="6.51781">
        <ele>2089.13</ele>
        <time>2018-08-06T07:50:09Z</time>
      </trkpt>
      <trkpt lat="45.92613" lon="6.51807">
        <ele>2090.64</ele>
        <time>2018-08-06T07:50:39Z</time>
      </trkpt>
      <trkpt lat="45.92598" lon="6.51794">
        <ele>2094.84</ele>
        <time>2018-08-06T07:51:30Z</time>
      </trkpt>
      <trkpt lat="45.92583" lon="6.51778">
        <ele>2100.42</ele>
        <time>2018-08-06T07:51:53Z</time>
      </trkpt>
      <trkpt lat="45.92567" lon="6.51765">
        <ele>2108.97</ele>
        <time>2018-08-06T07:52:26Z</time>
      </trkpt>
      <trkpt lat="45.9255" lon="6.51758">
        <ele>2112.08</ele>
        <time>2018-08-06T07:52:47Z</time>
      </trkpt>
      <trkpt lat="45.92532" lon="6.51759">
        <ele>2115.39</ele>
        <time>2018-08-06T07:53:19Z</time>
      </trkpt>
      <trkpt lat="45.92514" lon="6.51756">
        <ele>2115.53</ele>
        <time>2018-08-06T07:53:40Z</time>
      </trkpt>
      <trkpt lat="45.92496" lon="6.51763">
        <ele>2112.07</ele>
        <time>2018-08-06T07:54:12Z</time>
      </trkpt>
      <trkpt lat="45.92487" lon="6.51787">
        <ele>2113.07</ele>
        <time>2018-08-06T07:54:40Z</time>
      </trkpt>
      <trkpt lat="45.92479" lon="6.5181">
        <ele>2118.74</ele>
        <time>2018-08-06T07:55:08Z</time>
      </trkpt>
      <trkpt lat="45.9248" lon="6.51837">
        <ele>2123.83</ele>
        <time>2018-08-06T07:55:47Z</time>
      </trkpt>
      <trkpt lat="45.92489" lon="6.51861">
        <ele>2130.73</ele>
        <time>2018-08-06T07:56:24Z</time>
      </trkpt>
      <trkpt lat="45.92489" lon="6.51887">
        <ele>2136.49</ele>
        <time>2018-08-06T07:57:17Z</time>
      </trkpt>
      <trkpt lat="45.92485" lon="6.51913">
        <ele>2142.5</ele>
        <time>2018-08-06T07:58:00Z</time>
      </trkpt>
      <trkpt lat="45.92482" lon="6.51939">
        <ele>2147.54</ele>
        <time>2018-08-06T07:58:39Z</time>
      </trkpt>
      <trkpt lat="45.92465" lon="6.5195">
        <ele>2156.17</ele>
        <time>2018-08-06T07:59:40Z</time>
      </trkpt>
      <trkpt lat="45.92446" lon="6.5195">
        <ele>2166.03</ele>
        <time>2018-08-06T08:00:26Z</time>
      </trkpt>
      <trkpt lat="45.92442" lon="6.51977">
        <ele>2175.43</ele>
        <time>2018-08-06T08:01:14Z</time>
      </trkpt>
      <trkpt lat="45.92431" lon="6.51999">
        <ele>2180.13</ele>
        <time>2018-08-06T08:02:00Z</time>
      </trkpt>
      <trkpt lat="45.92419" lon="6.52019">
        <ele>2183.01</ele>
        <time>2018-08-06T08:02:15Z</time>
      </trkpt>
      <trkpt lat="45.9241" lon="6.52043">
        <ele>2185.87</ele>
        <time>2018-08-06T08:02:32Z</time>
      </trkpt>
      <trkpt lat="45.92394" lon="6.52055">
        <ele>2187.8</ele>
        <time>2018-08-06T08:02:52Z</time>
      </trkpt>
      <trkpt lat="45.92379" lon="6.52074">
        <ele>2192.43</ele>
        <time>2018-08-06T08:03:29Z</time>
      </trkpt>
      <trkpt lat="45.92377" lon="6.521">
        <ele>2196.28</ele>
        <time>2018-08-06T08:03:46Z</time>
      </trkpt>
      <trkpt lat="45.92372" lon="6.52125">
        <ele>2200.57</ele>
        <time>2018-08-06T08:04:20Z</time>
      </trkpt>
      <trkpt lat="45.92355" lon="6.52134">
        <ele>2202.88</ele>
        <time>2018-08-06T08:05:06Z</time>
      </trkpt>
      <trkpt lat="45.92351" lon="6.52161">
        <ele>2215.44</ele>
        <time>2018-08-06T08:06:03Z</time>
      </trkpt>
      <trkpt lat="45.92347" lon="6.52186">
        <ele>2218.49</ele>
        <time>2018-08-06T08:06:40Z</time>
      </trkpt>
      <trkpt lat="45.92349" lon="6.52213">
        <ele>2220.63</ele>
        <time>2018-08-06T08:07:11Z</time>
      </trkpt>
      <trkpt lat="45.92345" lon="6.52238">
        <ele>2231.19</ele>
        <time>2018-08-06T08:07:50Z</time>
      </trkpt>
      <trkpt lat="45.92349" lon="6.52264">
        <ele>2243.08</ele>
        <time>2018-08-06T08:08:43Z</time>
      </trkpt>
      <trkpt lat="45.92342" lon="6.52288">
        <ele>2247.35</ele>
        <time>2018-08-06T08:09:22Z</time>
      </trkpt>
      <trkpt lat="45.92337" lon="6.52313">
        <ele>2252.97</ele>
        <time>2018-08-06T08:10:13Z</time>
      </trkpt>
      <trkpt lat="45.92324" lon="6.52332">
        <ele>2257.95</ele>
        <time>2018-08-06T08:11:24Z</time>
      </trkpt>
      <trkpt lat="45.92323" lon="6.52358">
        <ele>2270.33</ele>
        <time>2018-08-06T08:12:27Z</time>
      </trkpt>
      <trkpt lat="45.92329" lon="6.52384">
        <ele>2275.8</ele>
        <time>2018-08-06T08:13:33Z</time>
      </trkpt>
      <trkpt lat="45.92325" lon="6.5241">
        <ele>2288.03</ele>
        <time>2018-08-06T08:14:25Z</time>
      </trkpt>
      <trkpt lat="45.92322" lon="6.52438">
        <ele>2299.89</ele>
        <time>2018-08-06T08:15:20Z</time>
      </trkpt>
      <trkpt lat="45.92324" lon="6.52466">
        <ele>2312.81</ele>
        <time>2018-08-06T08:15:56Z</time>
      </trkpt>
      <trkpt lat="45.92325" lon="6.52493">
        <ele>2318.53</ele>
        <time>2018-08-06T08:16:17Z</time>
      </trkpt>
      <trkpt lat="45.92324" lon="6.5252">
        <ele>2315.55</ele>
        <time>2018-08-06T08:16:56Z</time>
      </trkpt>
      <trkpt lat="45.92318" lon="6.52544">
        <ele>2313.63</ele>
        <time>2018-08-06T08:17:21Z</time>
      </trkpt>
      <trkpt lat="45.9232" lon="6.5257">
        <ele>2314.19</ele>
        <time>2018-08-06T08:17:49Z</time>
      </trkpt>
      <trkpt lat="45.92312" lon="6.52594">
        <ele>2314.58</ele>
        <time>2018-08-06T08:18:33Z</time>
      </trkpt>
      <trkpt lat="45.92322" lon="6.52617">
        <ele>2323.07</ele>
        <time>2018-08-06T08:19:27Z</time>
      </trkpt>
      <trkpt lat="45.92319" lon="6.52644">
        <ele>2324.57</ele>
        <time>2018-08-06T08:20:07Z</time>
      </trkpt>
      <trkpt lat="45.92307" lon="6.52665">
        <ele>2330.39</ele>
        <time>2018-08-06T08:21:26Z</time>
      </trkpt>
      <trkpt lat="45.92307" lon="6.52691">
        <ele>2334.77</ele>
        <time>2018-08-06T08:21:55Z</time>
      </trkpt>
      <trkpt lat="45.92302" lon="6.52716">
        <ele>2342.91</ele>
        <time>2018-08-06T08:22:26Z</time>
      </trkpt>
      <trkpt lat="45.92289" lon="6.52738">
        <ele>2344.56</ele>
        <time>2018-08-06T08:23:15Z</time>
      </trkpt>
      <trkpt lat="45.92297" lon="6.52762">
        <ele>2365.95</ele>
        <time>2018-08-06T08:24:16Z</time>
      </trkpt>
      <trkpt lat="45.92308" lon="6.52782">
        <ele>2373.21</ele>
        <time>2018-08-06T08:24:42Z</time>
      </trkpt>
      <trkpt lat="45.9232" lon="6.52802">
        <ele>2379.66</ele>
        <time>2018-08-06T08:25:03Z</time>
      </trkpt>
      <trkpt lat="45.92336" lon="6.52814">
        <ele>2383.35</ele>
        <time>2018-08-06T08:25:22Z</time>
      </trkpt>
      <trkpt lat="45.92349" lon="6.52834">
        <ele>2387.11</ele>
        <time>2018-08-06T08:25:42Z</time>
      </trkpt>
      <trkpt lat="45.92364" lon="6.52849">
        <ele>2390.23</ele>
        <time>2018-08-06T08:26:05Z</time>
      </trkpt>
      <trkpt lat="45.92376" lon="6.5287">
        <ele>2396.21</ele>
        <time>2018-08-06T08:26:35Z</time>
      </trkpt>
      <trkpt lat="45.92389" lon="6.5289">
        <ele>2400.04</ele>
        <time>2018-08-06T08:27:00Z</time>
      </trkpt>
      <trkpt lat="45.92405" lon="6.52903">
        <ele>2402.23</ele>
        <time>2018-08-06T08:27:35Z</time>
      </trkpt>
      <trkpt lat="45.92389" lon="6.52917">
        <ele>2402.47</ele>
        <time>2018-08-06T08:28:30Z</time>
      </trkpt>
      <trkpt lat="45.92405" lon="6.52929">
        <ele>2408.94</ele>
        <time>2018-08-06T08:29:00Z</time>
      </trkpt>
      <trkpt lat="45.92416" lon="6.52952">
        <ele>2416.15</ele>
        <time>2018-08-06T08:29:35Z</time>
      </trkpt>
      <trkpt lat="45.92423" lon="6.52975">
        <ele>2414.91</ele>
        <time>2018-08-06T08:30:22Z</time>
      </trkpt>
      <trkpt lat="45.9243" lon="6.5295">
        <ele>2417.57</ele>
        <time>2018-08-06T08:31:27Z</time>
      </trkpt>
      <trkpt lat="45.92419" lon="6.52973">
        <ele>2426.67</ele>
        <time>2018-08-06T08:32:09Z</time>
      </trkpt>
      <trkpt lat="45.92417" lon="6.53">
        <ele>2430.24</ele>
        <time>2018-08-06T08:32:49Z</time>
      </trkpt>
      <trkpt lat="45.92425" lon="6.53025">
        <ele>2432.84</ele>
        <time>2018-08-06T08:33:31Z</time>
      </trkpt>
      <trkpt lat="45.92431" lon="6.5305">
        <ele>2432.36</ele>
        <time>2018-08-06T08:34:20Z</time>
      </trkpt>
      <trkpt lat="45.92449" lon="6.53055">
        <ele>2445.75</ele>
        <time>2018-08-06T08:36:26Z</time>
      </trkpt>
      <trkpt lat="45.92467" lon="6.53053">
        <ele>2450.94</ele>
        <time>2018-08-06T08:36:52Z</time>
      </trkpt>
      <trkpt lat="45.92485" lon="6.53043">
        <ele>2457.26</ele>
        <time>2018-08-06T08:37:24Z</time>
      </trkpt>
      <trkpt lat="45.92497" lon="6.53022">
        <ele>2458.43</ele>
        <time>2018-08-06T08:37:45Z</time>
      </trkpt>
      <trkpt lat="45.92508" lon="6.53">
        <ele>2460.93</ele>
        <time>2018-08-06T08:38:08Z</time>
      </trkpt>
      <trkpt lat="45.92519" lon="6.5298">
        <ele>2461.92</ele>
        <time>2018-08-06T08:38:27Z</time>
      </trkpt>
      <trkpt lat="45.92526" lon="6.52955">
        <ele>2465.7</ele>
        <time>2018-08-06T08:38:58Z</time>
      </trkpt>
      <trkpt lat="45.92537" lon="6.52933">
        <ele>2467.21</ele>
        <time>2018-08-06T08:39:19Z</time>
      </trkpt>
      <trkpt lat="45.9254" lon="6.52907">
        <ele>2469.69</ele>
        <time>2018-08-06T08:39:42Z</time>
      </trkpt>
      <trkpt lat="45.9255" lon="6.52885">
        <ele>2471.81</ele>
        <time>2018-08-06T08:40:01Z</time>
      </trkpt>
      <trkpt lat="45.92552" lon="6.52859">
        <ele>2470.16</ele>
        <time>2018-08-06T08:40:19Z</time>
      </trkpt>
      <trkpt lat="45.92559" lon="6.52834">
        <ele>2470.53</ele>
        <time>2018-08-06T08:40:38Z</time>
      </trkpt>
      <trkpt lat="45.92569" lon="6.52812">
        <ele>2471.44</ele>
        <time>2018-08-06T08:40:59Z</time>
      </trkpt>
      <trkpt lat="45.92574" lon="6.52785">
        <ele>2471.64</ele>
        <time>2018-08-06T08:41:16Z</time>
      </trkpt>
      <trkpt lat="45.92584" lon="6.52764">
        <ele>2472.55</ele>
        <time>2018-08-06T08:41:37Z</time>
      </trkpt>
      <trkpt lat="45.92593" lon="6.5274">
        <ele>2474.16</ele>
        <time>2018-08-06T08:42:02Z</time>
      </trkpt>
      <trkpt lat="45.92603" lon="6.52718">
        <ele>2476.29</ele>
        <time>2018-08-06T08:42:29Z</time>
      </trkpt>
      <trkpt lat="45.92613" lon="6.52696">
        <ele>2479.51</ele>
        <time>2018-08-06T08:43:02Z</time>
      </trkpt>
      <trkpt lat="45.92622" lon="6.52673">
        <ele>2488.54</ele>
        <time>2018-08-06T08:43:58Z</time>
      </trkpt>
      <trkpt lat="45.92633" lon="6.52653">
        <ele>2494.59</ele>
        <time>2018-08-06T08:44:33Z</time>
      </trkpt>
      <trkpt lat="45.92642" lon="6.52629">
        <ele>2500.14</ele>
        <time>2018-08-06T08:45:04Z</time>
      </trkpt>
      <trkpt lat="45.92652" lon="6.52607">
        <ele>2503.37</ele>
        <time>2018-08-06T08:45:32Z</time>
      </trkpt>
      <trkpt lat="45.92662" lon="6.52584">
        <ele>2505.16</ele>
        <time>2018-08-06T08:47:39Z</time>
      </trkpt>
      <trkpt lat="45.92657" lon="6.5261">
        <ele>2499.59</ele>
        <time>2018-08-06T08:49:07Z</time>
      </trkpt>
      <trkpt lat="45.92646" lon="6.52631">
        <ele>2505.55</ele>
        <time>2018-08-06T08:54:45Z</time>
      </trkpt>
      <trkpt lat="45.92638" lon="6.52656">
        <ele>2505.87</ele>
        <time>2018-08-06T08:55:07Z</time>
      </trkpt>
      <trkpt lat="45.92628" lon="6.52678">
        <ele>2503.12</ele>
        <time>2018-08-06T08:55:45Z</time>
      </trkpt>
      <trkpt lat="45.92618" lon="6.52699">
        <ele>2498.4</ele>
        <time>2018-08-06T08:56:17Z</time>
      </trkpt>
      <trkpt lat="45.92607" lon="6.52719">
        <ele>2493.44</ele>
        <time>2018-08-06T08:56:43Z</time>
      </trkpt>
      <trkpt lat="45.92597" lon="6.52741">
        <ele>2488.23</ele>
        <time>2018-08-06T08:57:05Z</time>
      </trkpt>
      <trkpt lat="45.92589" lon="6.52765">
        <ele>2484.68</ele>
        <time>2018-08-06T08:57:22Z</time>
      </trkpt>
      <trkpt lat="45.92579" lon="6.52787">
        <ele>2481.72</ele>
        <time>2018-08-06T08:57:40Z</time>
      </trkpt>
      <trkpt lat="45.92571" lon="6.52811">
        <ele>2478.94</ele>
        <time>2018-08-06T08:57:57Z</time>
      </trkpt>
      <trkpt lat="45.92561" lon="6.52835">
        <ele>2477.4</ele>
        <time>2018-08-06T08:58:14Z</time>
      </trkpt>
      <trkpt lat="45.92553" lon="6.52859">
        <ele>2476.56</ele>
        <time>2018-08-06T08:58:32Z</time>
      </trkpt>
      <trkpt lat="45.92549" lon="6.52884">
        <ele>2476.82</ele>
        <time>2018-08-06T08:58:52Z</time>
      </trkpt>
      <trkpt lat="45.92543" lon="6.52909">
        <ele>2476.58</ele>
        <time>2018-08-06T08:59:13Z</time>
      </trkpt>
      <trkpt lat="45.92534" lon="6.52933">
        <ele>2475.77</ele>
        <time>2018-08-06T08:59:33Z</time>
      </trkpt>
      <trkpt lat="45.9253" lon="6.52959">
        <ele>2475.77</ele>
        <time>2018-08-06T08:59:52Z</time>
      </trkpt>
      <trkpt lat="45.92524" lon="6.52984">
        <ele>2474.55</ele>
        <time>2018-08-06T09:00:14Z</time>
      </trkpt>
      <trkpt lat="45.92517" lon="6.5301">
        <ele>2472.87</ele>
        <time>2018-08-06T09:00:37Z</time>
      </trkpt>
      <trkpt lat="45.92507" lon="6.53032">
        <ele>2470.98</ele>
        <time>2018-08-06T09:01:03Z</time>
      </trkpt>
      <trkpt lat="45.92496" lon="6.53054">
        <ele>2469.95</ele>
        <time>2018-08-06T09:01:20Z</time>
      </trkpt>
      <trkpt lat="45.92484" lon="6.53073">
        <ele>2467.78</ele>
        <time>2018-08-06T09:01:41Z</time>
      </trkpt>
      <trkpt lat="45.9247" lon="6.5309">
        <ele>2466.48</ele>
        <time>2018-08-06T09:02:09Z</time>
      </trkpt>
      <trkpt lat="45.92478" lon="6.53066">
        <ele>2467.61</ele>
        <time>2018-08-06T09:03:16Z</time>
      </trkpt>
      <trkpt lat="45.92489" lon="6.53045">
        <ele>2465.8</ele>
        <time>2018-08-06T09:03:39Z</time>
      </trkpt>
      <trkpt lat="45.92472" lon="6.53055">
        <ele>2459.89</ele>
        <time>2018-08-06T09:04:14Z</time>
      </trkpt>
      <trkpt lat="45.92454" lon="6.53056">
        <ele>2457.33</ele>
        <time>2018-08-06T09:04:27Z</time>
      </trkpt>
      <trkpt lat="45.92435" lon="6.53061">
        <ele>2454.4</ele>
        <time>2018-08-06T09:04:42Z</time>
      </trkpt>
      <trkpt lat="45.92418" lon="6.53071">
        <ele>2444.35</ele>
        <time>2018-08-06T09:07:28Z</time>
      </trkpt>
      <trkpt lat="45.9241" lon="6.53094">
        <ele>2427.53</ele>
        <time>2018-08-06T09:09:29Z</time>
      </trkpt>
      <trkpt lat="45.92399" lon="6.53116">
        <ele>2414.61</ele>
        <time>2018-08-06T09:11:19Z</time>
      </trkpt>
      <trkpt lat="45.92409" lon="6.53138">
        <ele>2408.18</ele>
        <time>2018-08-06T09:12:44Z</time>
      </trkpt>
      <trkpt lat="45.92422" lon="6.53158">
        <ele>2406.98</ele>
        <time>2018-08-06T09:13:10Z</time>
      </trkpt>
      <trkpt lat="45.92424" lon="6.53184">
        <ele>2405.39</ele>
        <time>2018-08-06T09:14:07Z</time>
      </trkpt>
      <trkpt lat="45.92426" lon="6.53211">
        <ele>2403.46</ele>
        <time>2018-08-06T09:14:34Z</time>
      </trkpt>
      <trkpt lat="45.92425" lon="6.53237">
        <ele>2391.61</ele>
        <time>2018-08-06T09:15:55Z</time>
      </trkpt>
      <trkpt lat="45.92432" lon="6.53262">
        <ele>2380.27</ele>
        <time>2018-08-06T09:16:39Z</time>
      </trkpt>
      <trkpt lat="45.92438" lon="6.53287">
        <ele>2374.11</ele>
        <time>2018-08-06T09:17:03Z</time>
      </trkpt>
      <trkpt lat="45.92438" lon="6.53314">
        <ele>2371.31</ele>
        <time>2018-08-06T09:17:23Z</time>
      </trkpt>
      <trkpt lat="45.92442" lon="6.5334">
        <ele>2369.29</ele>
        <time>2018-08-06T09:17:39Z</time>
      </trkpt>
      <trkpt lat="45.9245" lon="6.53364">
        <ele>2364.27</ele>
        <time>2018-08-06T09:18:50Z</time>
      </trkpt>
      <trkpt lat="45.92455" lon="6.53389">
        <ele>2359.59</ele>
        <time>2018-08-06T09:19:21Z</time>
      </trkpt>
      <trkpt lat="45.92461" lon="6.53414">
        <ele>2355.36</ele>
        <time>2018-08-06T09:19:49Z</time>
      </trkpt>
      <trkpt lat="45.92471" lon="6.53435">
        <ele>2351.17</ele>
        <time>2018-08-06T09:20:09Z</time>
      </trkpt>
      <trkpt lat="45.92486" lon="6.53449">
        <ele>2338.85</ele>
        <time>2018-08-06T09:21:58Z</time>
      </trkpt>
      <trkpt lat="45.92505" lon="6.53448">
        <ele>2327.55</ele>
        <time>2018-08-06T09:22:41Z</time>
      </trkpt>
      <trkpt lat="45.9251" lon="6.53423">
        <ele>2318.7</ele>
        <time>2018-08-06T09:23:44Z</time>
      </trkpt>
      <trkpt lat="45.92511" lon="6.53397">
        <ele>2312.64</ele>
        <time>2018-08-06T09:24:11Z</time>
      </trkpt>
      <trkpt lat="45.92528" lon="6.53389">
        <ele>2300.74</ele>
        <time>2018-08-06T09:25:47Z</time>
      </trkpt>
      <trkpt lat="45.92539" lon="6.53367">
        <ele>2288.3</ele>
        <time>2018-08-06T09:26:35Z</time>
      </trkpt>
      <trkpt lat="45.92544" lon="6.53342">
        <ele>2267.22</ele>
        <time>2018-08-06T09:27:27Z</time>
      </trkpt>
      <trkpt lat="45.9256" lon="6.53329">
        <ele>2253.01</ele>
        <time>2018-08-06T09:28:13Z</time>
      </trkpt>
      <trkpt lat="45.9257" lon="6.53308">
        <ele>2238.24</ele>
        <time>2018-08-06T09:28:55Z</time>
      </trkpt>
      <trkpt lat="45.92589" lon="6.53301">
        <ele>2232.1</ele>
        <time>2018-08-06T09:29:20Z</time>
      </trkpt>
      <trkpt lat="45.92607" lon="6.53293">
        <ele>2227.9</ele>
        <time>2018-08-06T09:29:45Z</time>
      </trkpt>
      <trkpt lat="45.92628" lon="6.53282">
        <ele>2225.61</ele>
        <time>2018-08-06T09:30:03Z</time>
      </trkpt>
      <trkpt lat="45.92645" lon="6.53272">
        <ele>2224.74</ele>
        <time>2018-08-06T09:30:16Z</time>
      </trkpt>
      <trkpt lat="45.9263" lon="6.53259">
        <ele>2223.68</ele>
        <time>2018-08-06T09:30:33Z</time>
      </trkpt>
      <trkpt lat="45.92647" lon="6.5324">
        <ele>2219.95</ele>
        <time>2018-08-06T09:30:55Z</time>
      </trkpt>
      <trkpt lat="45.9266" lon="6.53212">
        <ele>2215</ele>
        <time>2018-08-06T09:31:16Z</time>
      </trkpt>
      <trkpt lat="45.92642" lon="6.53228">
        <ele>2214.08</ele>
        <time>2018-08-06T09:31:19Z</time>
      </trkpt>
      <trkpt lat="45.9266" lon="6.53219">
        <ele>2212.76</ele>
        <time>2018-08-06T09:31:25Z</time>
      </trkpt>
      <trkpt lat="45.92675" lon="6.53203">
        <ele>2209.87</ele>
        <time>2018-08-06T09:31:42Z</time>
      </trkpt>
      <trkpt lat="45.92646" lon="6.53204">
        <ele>2206.87</ele>
        <time>2018-08-06T09:32:01Z</time>
      </trkpt>
      <trkpt lat="45.9267" lon="6.53188">
        <ele>2206.7</ele>
        <time>2018-08-06T09:32:05Z</time>
      </trkpt>
      <trkpt lat="45.92691" lon="6.53188">
        <ele>2204.64</ele>
        <time>2018-08-06T09:32:19Z</time>
      </trkpt>
      <trkpt lat="45.92714" lon="6.53186">
        <ele>2204.55</ele>
        <time>2018-08-06T09:32:20Z</time>
      </trkpt>
      <trkpt lat="45.92693" lon="6.53175">
        <ele>2203.88</ele>
        <time>2018-08-06T09:32:24Z</time>
      </trkpt>
      <trkpt lat="45.92712" lon="6.53161">
        <ele>2198.92</ele>
        <time>2018-08-06T09:32:41Z</time>
      </trkpt>
      <trkpt lat="45.92693" lon="6.53172">
        <ele>2198.16</ele>
        <time>2018-08-06T09:32:44Z</time>
      </trkpt>
      <trkpt lat="45.92679" lon="6.53152">
        <ele>2197.11</ele>
        <time>2018-08-06T09:32:48Z</time>
      </trkpt>
      <trkpt lat="45.927" lon="6.53152">
        <ele>2195.7</ele>
        <time>2018-08-06T09:32:55Z</time>
      </trkpt>
      <trkpt lat="45.92678" lon="6.53157">
        <ele>2195.77</ele>
        <time>2018-08-06T09:32:58Z</time>
      </trkpt>
      <trkpt lat="45.92697" lon="6.53156">
        <ele>2194.84</ele>
        <time>2018-08-06T09:32:59Z</time>
      </trkpt>
      <trkpt lat="45.92673" lon="6.53189">
        <ele>2195.39</ele>
        <time>2018-08-06T09:33:01Z</time>
      </trkpt>
      <trkpt lat="45.9268" lon="6.53137">
        <ele>2195.57</ele>
        <time>2018-08-06T09:33:02Z</time>
      </trkpt>
      <trkpt lat="45.92702" lon="6.53145">
        <ele>2196.36</ele>
        <time>2018-08-06T09:33:07Z</time>
      </trkpt>
      <trkpt lat="45.92711" lon="6.53118">
        <ele>2197.38</ele>
        <time>2018-08-06T09:33:15Z</time>
      </trkpt>
      <trkpt lat="45.92686" lon="6.53081">
        <ele>2200.41</ele>
        <time>2018-08-06T09:33:26Z</time>
      </trkpt>
      <trkpt lat="45.92724" lon="6.53098">
        <ele>2200.45</ele>
        <time>2018-08-06T09:33:27Z</time>
      </trkpt>
      <trkpt lat="45.92761" lon="6.53116">
        <ele>2200.31</ele>
        <time>2018-08-06T09:33:28Z</time>
      </trkpt>
      <trkpt lat="45.92737" lon="6.5313">
        <ele>2200.53</ele>
        <time>2018-08-06T09:33:31Z</time>
      </trkpt>
      <trkpt lat="45.92753" lon="6.53073">
        <ele>2203.94</ele>
        <time>2018-08-06T09:33:42Z</time>
      </trkpt>
      <trkpt lat="45.92738" lon="6.53101">
        <ele>2204.19</ele>
        <time>2018-08-06T09:33:43Z</time>
      </trkpt>
      <trkpt lat="45.92715" lon="6.53108">
        <ele>2204.64</ele>
        <time>2018-08-06T09:33:45Z</time>
      </trkpt>
      <trkpt lat="45.92733" lon="6.53116">
        <ele>2213.06</ele>
        <time>2018-08-06T09:33:57Z</time>
      </trkpt>
      <trkpt lat="45.92738" lon="6.53091">
        <ele>2215.91</ele>
        <time>2018-08-06T09:34:06Z</time>
      </trkpt>
      <trkpt lat="45.92758" lon="6.53083">
        <ele>2224.03</ele>
        <time>2018-08-06T09:34:41Z</time>
      </trkpt>
      <trkpt lat="45.92777" lon="6.5308">
        <ele>2209.45</ele>
        <time>2018-08-06T09:35:38Z</time>
      </trkpt>
      <trkpt lat="45.92788" lon="6.53059">
        <ele>2199.18</ele>
        <time>2018-08-06T09:36:11Z</time>
      </trkpt>
      <trkpt lat="45.92796" lon="6.53036">
        <ele>2188.98</ele>
        <time>2018-08-06T09:36:46Z</time>
      </trkpt>
      <trkpt lat="45.92806" lon="6.53014">
        <ele>2177.48</ele>
        <time>2018-08-06T09:37:17Z</time>
      </trkpt>
      <trkpt lat="45.9282" lon="6.52995">
        <ele>2168.19</ele>
        <time>2018-08-06T09:37:40Z</time>
      </trkpt>
      <trkpt lat="45.92833" lon="6.52977">
        <ele>2157.6</ele>
        <time>2018-08-06T09:38:11Z</time>
      </trkpt>
      <trkpt lat="45.92844" lon="6.52957">
        <ele>2150.04</ele>
        <time>2018-08-06T09:38:45Z</time>
      </trkpt>
      <trkpt lat="45.92858" lon="6.5294">
        <ele>2150.17</ele>
        <time>2018-08-06T09:39:12Z</time>
      </trkpt>
      <trkpt lat="45.92874" lon="6.52928">
        <ele>2137.08</ele>
        <time>2018-08-06T09:40:00Z</time>
      </trkpt>
      <trkpt lat="45.9289" lon="6.52915">
        <ele>2133.72</ele>
        <time>2018-08-06T09:40:27Z</time>
      </trkpt>
      <trkpt lat="45.92904" lon="6.52897">
        <ele>2135.64</ele>
        <time>2018-08-06T09:41:07Z</time>
      </trkpt>
      <trkpt lat="45.92914" lon="6.52875">
        <ele>2130.06</ele>
        <time>2018-08-06T09:41:32Z</time>
      </trkpt>
      <trkpt lat="45.92922" lon="6.52851">
        <ele>2117.86</ele>
        <time>2018-08-06T09:42:09Z</time>
      </trkpt>
      <trkpt lat="45.92925" lon="6.52823">
        <ele>2115.22</ele>
        <time>2018-08-06T09:42:28Z</time>
      </trkpt>
      <trkpt lat="45.92932" lon="6.52798">
        <ele>2113.93</ele>
        <time>2018-08-06T09:42:53Z</time>
      </trkpt>
      <trkpt lat="45.92941" lon="6.52775">
        <ele>2109.73</ele>
        <time>2018-08-06T09:43:33Z</time>
      </trkpt>
      <trkpt lat="45.9295" lon="6.52752">
        <ele>2100.38</ele>
        <time>2018-08-06T09:44:03Z</time>
      </trkpt>
      <trkpt lat="45.92964" lon="6.52735">
        <ele>2095.64</ele>
        <time>2018-08-06T09:44:17Z</time>
      </trkpt>
      <trkpt lat="45.92979" lon="6.52719">
        <ele>2088.45</ele>
        <time>2018-08-06T09:44:42Z</time>
      </trkpt>
      <trkpt lat="45.9299" lon="6.52698">
        <ele>2083.11</ele>
        <time>2018-08-06T09:45:00Z</time>
      </trkpt>
      <trkpt lat="45.93004" lon="6.52679">
        <ele>2072</ele>
        <time>2018-08-06T09:45:25Z</time>
      </trkpt>
      <trkpt lat="45.93019" lon="6.52664">
        <ele>2067.99</ele>
        <time>2018-08-06T09:46:01Z</time>
      </trkpt>
      <trkpt lat="45.93025" lon="6.52639">
        <ele>2056.89</ele>
        <time>2018-08-06T09:46:49Z</time>
      </trkpt>
      <trkpt lat="45.93036" lon="6.52618">
        <ele>2054.07</ele>
        <time>2018-08-06T09:47:09Z</time>
      </trkpt>
      <trkpt lat="45.93045" lon="6.52595">
        <ele>2053.22</ele>
        <time>2018-08-06T09:47:29Z</time>
      </trkpt>
      <trkpt lat="45.93055" lon="6.52574">
        <ele>2051.12</ele>
        <time>2018-08-06T09:47:52Z</time>
      </trkpt>
      <trkpt lat="45.93064" lon="6.5255">
        <ele>2048.57</ele>
        <time>2018-08-06T09:48:11Z</time>
      </trkpt>
      <trkpt lat="45.93074" lon="6.52528">
        <ele>2040.23</ele>
        <time>2018-08-06T09:48:31Z</time>
      </trkpt>
      <trkpt lat="45.93087" lon="6.52504">
        <ele>2038.23</ele>
        <time>2018-08-06T09:48:50Z</time>
      </trkpt>
      <trkpt lat="45.931" lon="6.52481">
        <ele>2037.86</ele>
        <time>2018-08-06T09:49:03Z</time>
      </trkpt>
      <trkpt lat="45.93114" lon="6.52463">
        <ele>2041.76</ele>
        <time>2018-08-06T09:49:35Z</time>
      </trkpt>
      <trkpt lat="45.93127" lon="6.52444">
        <ele>2042.61</ele>
        <time>2018-08-06T09:49:56Z</time>
      </trkpt>
      <trkpt lat="45.93143" lon="6.5243">
        <ele>2041.6</ele>
        <time>2018-08-06T09:50:07Z</time>
      </trkpt>
      <trkpt lat="45.93156" lon="6.52412">
        <ele>2037.92</ele>
        <time>2018-08-06T09:50:36Z</time>
      </trkpt>
      <trkpt lat="45.93173" lon="6.5239">
        <ele>2034.65</ele>
        <time>2018-08-06T09:50:57Z</time>
      </trkpt>
      <trkpt lat="45.932" lon="6.52386">
        <ele>2025.9</ele>
        <time>2018-08-06T09:51:25Z</time>
      </trkpt>
      <trkpt lat="45.93224" lon="6.5238">
        <ele>2015.25</ele>
        <time>2018-08-06T09:51:57Z</time>
      </trkpt>
      <trkpt lat="45.93205" lon="6.52393">
        <ele>2014.88</ele>
        <time>2018-08-06T09:51:59Z</time>
      </trkpt>
      <trkpt lat="45.93233" lon="6.5237">
        <ele>2014.75</ele>
        <time>2018-08-06T09:52:00Z</time>
      </trkpt>
      <trkpt lat="45.93214" lon="6.5238">
        <ele>2014.21</ele>
        <time>2018-08-06T09:52:04Z</time>
      </trkpt>
      <trkpt lat="45.9323" lon="6.52368">
        <ele>2011.05</ele>
        <time>2018-08-06T09:52:22Z</time>
      </trkpt>
      <trkpt lat="45.93274" lon="6.52364">
        <ele>2009.74</ele>
        <time>2018-08-06T09:52:29Z</time>
      </trkpt>
      <trkpt lat="45.93243" lon="6.52377">
        <ele>2009.55</ele>
        <time>2018-08-06T09:52:30Z</time>
      </trkpt>
      <trkpt lat="45.93226" lon="6.52384">
        <ele>2006.95</ele>
        <time>2018-08-06T09:52:36Z</time>
      </trkpt>
      <trkpt lat="45.93239" lon="6.52359">
        <ele>2005.23</ele>
        <time>2018-08-06T09:52:41Z</time>
      </trkpt>
      <trkpt lat="45.93263" lon="6.5237">
        <ele>1997.59</ele>
        <time>2018-08-06T09:53:07Z</time>
      </trkpt>
      <trkpt lat="45.93248" lon="6.5235">
        <ele>1995.37</ele>
        <time>2018-08-06T09:53:17Z</time>
      </trkpt>
      <trkpt lat="45.93269" lon="6.52401">
        <ele>1994.71</ele>
        <time>2018-08-06T09:53:27Z</time>
      </trkpt>
      <trkpt lat="45.93253" lon="6.52353">
        <ele>1994.69</ele>
        <time>2018-08-06T09:53:28Z</time>
      </trkpt>
      <trkpt lat="45.9323" lon="6.52366">
        <ele>1994.82</ele>
        <time>2018-08-06T09:53:29Z</time>
      </trkpt>
      <trkpt lat="45.93251" lon="6.5241">
        <ele>1994.35</ele>
        <time>2018-08-06T09:53:32Z</time>
      </trkpt>
      <trkpt lat="45.93243" lon="6.5238">
        <ele>1994.44</ele>
        <time>2018-08-06T09:53:34Z</time>
      </trkpt>
      <trkpt lat="45.93254" lon="6.52345">
        <ele>1994.47</ele>
        <time>2018-08-06T09:53:35Z</time>
      </trkpt>
      <trkpt lat="45.93236" lon="6.52339">
        <ele>2015.07</ele>
        <time>2018-08-06T09:53:57Z</time>
      </trkpt>
      <trkpt lat="45.93245" lon="6.52369">
        <ele>2032.29</ele>
        <time>2018-08-06T09:54:02Z</time>
      </trkpt>
      <trkpt lat="45.93256" lon="6.52347">
        <ele>2020.34</ele>
        <time>2018-08-06T09:54:24Z</time>
      </trkpt>
      <trkpt lat="45.93267" lon="6.52327">
        <ele>2006.72</ele>
        <time>2018-08-06T09:54:45Z</time>
      </trkpt>
      <trkpt lat="45.93287" lon="6.5232">
        <ele>2009.79</ele>
        <time>2018-08-06T09:55:15Z</time>
      </trkpt>
      <trkpt lat="45.93288" lon="6.52294">
        <ele>2010.95</ele>
        <time>2018-08-06T09:55:29Z</time>
      </trkpt>
      <trkpt lat="45.93298" lon="6.5227">
        <ele>2011.78</ele>
        <time>2018-08-06T09:55:57Z</time>
      </trkpt>
      <trkpt lat="45.93305" lon="6.52246">
        <ele>2013.15</ele>
        <time>2018-08-06T09:56:10Z</time>
      </trkpt>
      <trkpt lat="45.93311" lon="6.5222">
        <ele>2017</ele>
        <time>2018-08-06T09:56:27Z</time>
      </trkpt>
      <trkpt lat="45.9332" lon="6.52195">
        <ele>2018.42</ele>
        <time>2018-08-06T09:56:47Z</time>
      </trkpt>
      <trkpt lat="45.93337" lon="6.52174">
        <ele>2017.1</ele>
        <time>2018-08-06T09:57:03Z</time>
      </trkpt>
      <trkpt lat="45.9335" lon="6.52155">
        <ele>2015.8</ele>
        <time>2018-08-06T09:57:24Z</time>
      </trkpt>
      <trkpt lat="45.93369" lon="6.52152">
        <ele>2014.63</ele>
        <time>2018-08-06T09:57:41Z</time>
      </trkpt>
      <trkpt lat="45.93399" lon="6.52162">
        <ele>2015.61</ele>
        <time>2018-08-06T09:58:04Z</time>
      </trkpt>
      <trkpt lat="45.9338" lon="6.52157">
        <ele>2014.84</ele>
        <time>2018-08-06T09:58:10Z</time>
      </trkpt>
      <trkpt lat="45.93397" lon="6.52147">
        <ele>2006.14</ele>
        <time>2018-08-06T09:58:47Z</time>
      </trkpt>
      <trkpt lat="45.93411" lon="6.52163">
        <ele>1990.92</ele>
        <time>2018-08-06T09:59:18Z</time>
      </trkpt>
      <trkpt lat="45.93417" lon="6.52138">
        <ele>1978.97</ele>
        <time>2018-08-06T10:00:07Z</time>
      </trkpt>
      <trkpt lat="45.93435" lon="6.52132">
        <ele>1968.68</ele>
        <time>2018-08-06T10:01:04Z</time>
      </trkpt>
      <trkpt lat="45.93447" lon="6.52112">
        <ele>1960.74</ele>
        <time>2018-08-06T10:01:30Z</time>
      </trkpt>
      <trkpt lat="45.93452" lon="6.52086">
        <ele>1956.41</ele>
        <time>2018-08-06T10:01:46Z</time>
      </trkpt>
      <trkpt lat="45.93462" lon="6.52063">
        <ele>1949.68</ele>
        <time>2018-08-06T10:02:11Z</time>
      </trkpt>
      <trkpt lat="45.93471" lon="6.52041">
        <ele>1943.46</ele>
        <time>2018-08-06T10:02:34Z</time>
      </trkpt>
      <trkpt lat="45.93485" lon="6.52023">
        <ele>1937.89</ele>
        <time>2018-08-06T10:02:54Z</time>
      </trkpt>
      <trkpt lat="45.93495" lon="6.52001">
        <ele>1933.52</ele>
        <time>2018-08-06T10:03:12Z</time>
      </trkpt>
      <trkpt lat="45.93496" lon="6.51975">
        <ele>1928.42</ele>
        <time>2018-08-06T10:03:33Z</time>
      </trkpt>
      <trkpt lat="45.93494" lon="6.51949">
        <ele>1923.25</ele>
        <time>2018-08-06T10:03:54Z</time>
      </trkpt>
      <trkpt lat="45.93504" lon="6.51925">
        <ele>1915.68</ele>
        <time>2018-08-06T10:04:21Z</time>
      </trkpt>
      <trkpt lat="45.93506" lon="6.51899">
        <ele>1895.89</ele>
        <time>2018-08-06T10:05:20Z</time>
      </trkpt>
      <trkpt lat="45.9351" lon="6.51871">
        <ele>1889.86</ele>
        <time>2018-08-06T10:05:42Z</time>
      </trkpt>
      <trkpt lat="45.93516" lon="6.51846">
        <ele>1887.2</ele>
        <time>2018-08-06T10:05:59Z</time>
      </trkpt>
      <trkpt lat="45.93519" lon="6.51819">
        <ele>1885.45</ele>
        <time>2018-08-06T10:06:19Z</time>
      </trkpt>
      <trkpt lat="45.93522" lon="6.51794">
        <ele>1883.28</ele>
        <time>2018-08-06T10:06:46Z</time>
      </trkpt>
      <trkpt lat="45.93525" lon="6.51767">
        <ele>1877.45</ele>
        <time>2018-08-06T10:07:22Z</time>
      </trkpt>
      <trkpt lat="45.93522" lon="6.51741">
        <ele>1867.14</ele>
        <time>2018-08-06T10:08:05Z</time>
      </trkpt>
      <trkpt lat="45.93538" lon="6.51728">
        <ele>1851.52</ele>
        <time>2018-08-06T10:08:59Z</time>
      </trkpt>
      <trkpt lat="45.93544" lon="6.51702">
        <ele>1831.03</ele>
        <time>2018-08-06T10:10:03Z</time>
      </trkpt>
      <trkpt lat="45.93553" lon="6.51677">
        <ele>1827.65</ele>
        <time>2018-08-06T10:10:47Z</time>
      </trkpt>
      <trkpt lat="45.93568" lon="6.51663">
        <ele>1826.49</ele>
        <time>2018-08-06T10:11:12Z</time>
      </trkpt>
      <trkpt lat="45.93576" lon="6.51638">
        <ele>1822.85</ele>
        <time>2018-08-06T10:11:35Z</time>
      </trkpt>
      <trkpt lat="45.93591" lon="6.51623">
        <ele>1814.91</ele>
        <time>2018-08-06T10:12:14Z</time>
      </trkpt>
      <trkpt lat="45.93606" lon="6.51607">
        <ele>1801.31</ele>
        <time>2018-08-06T10:13:01Z</time>
      </trkpt>
      <trkpt lat="45.93608" lon="6.51581">
        <ele>1797.09</ele>
        <time>2018-08-06T10:13:21Z</time>
      </trkpt>
      <trkpt lat="45.93613" lon="6.51555">
        <ele>1794.63</ele>
        <time>2018-08-06T10:13:47Z</time>
      </trkpt>
      <trkpt lat="45.93614" lon="6.51529">
        <ele>1793.15</ele>
        <time>2018-08-06T10:14:07Z</time>
      </trkpt>
      <trkpt lat="45.93615" lon="6.51503">
        <ele>1788.41</ele>
        <time>2018-08-06T10:14:35Z</time>
      </trkpt>
      <trkpt lat="45.93614" lon="6.51476">
        <ele>1786.75</ele>
        <time>2018-08-06T10:14:54Z</time>
      </trkpt>
      <trkpt lat="45.93611" lon="6.5145">
        <ele>1783.2</ele>
        <time>2018-08-06T10:15:22Z</time>
      </trkpt>
      <trkpt lat="45.93602" lon="6.51427">
        <ele>1781.99</ele>
        <time>2018-08-06T10:15:43Z</time>
      </trkpt>
      <trkpt lat="45.93594" lon="6.51403">
        <ele>1778.82</ele>
        <time>2018-08-06T10:16:04Z</time>
      </trkpt>
      <trkpt lat="45.93592" lon="6.51376">
        <ele>1773.91</ele>
        <time>2018-08-06T10:16:28Z</time>
      </trkpt>
      <trkpt lat="45.9359" lon="6.51349">
        <ele>1770.02</ele>
        <time>2018-08-06T10:16:49Z</time>
      </trkpt>
      <trkpt lat="45.93596" lon="6.51324">
        <ele>1768.52</ele>
        <time>2018-08-06T10:17:12Z</time>
      </trkpt>
      <trkpt lat="45.93594" lon="6.51298">
        <ele>1766.06</ele>
        <time>2018-08-06T10:17:41Z</time>
      </trkpt>
      <trkpt lat="45.93596" lon="6.51272">
        <ele>1762.46</ele>
        <time>2018-08-06T10:18:06Z</time>
      </trkpt>
      <trkpt lat="45.93595" lon="6.51246">
        <ele>1759.35</ele>
        <time>2018-08-06T10:18:23Z</time>
      </trkpt>
      <trkpt lat="45.93581" lon="6.51229">
        <ele>1756.75</ele>
        <time>2018-08-06T10:18:39Z</time>
      </trkpt>
      <trkpt lat="45.93565" lon="6.51219">
        <ele>1753.99</ele>
        <time>2018-08-06T10:19:00Z</time>
      </trkpt>
      <trkpt lat="45.93546" lon="6.51225">
        <ele>1754.81</ele>
        <time>2018-08-06T10:19:21Z</time>
      </trkpt>
      <trkpt lat="45.93528" lon="6.51226">
        <ele>1755.33</ele>
        <time>2018-08-06T10:19:38Z</time>
      </trkpt>
      <trkpt lat="45.9353" lon="6.512">
        <ele>1754.17</ele>
        <time>2018-08-06T10:20:14Z</time>
      </trkpt>
      <trkpt lat="45.93541" lon="6.51179">
        <ele>1747.91</ele>
        <time>2018-08-06T10:20:50Z</time>
      </trkpt>
      <trkpt lat="45.93553" lon="6.51157">
        <ele>1743.74</ele>
        <time>2018-08-06T10:21:08Z</time>
      </trkpt>
      <trkpt lat="45.9354" lon="6.51137">
        <ele>1734.04</ele>
        <time>2018-08-06T10:21:50Z</time>
      </trkpt>
      <trkpt lat="45.93526" lon="6.51153">
        <ele>1728.79</ele>
        <time>2018-08-06T10:22:06Z</time>
      </trkpt>
      <trkpt lat="45.93508" lon="6.51148">
        <ele>1723.57</ele>
        <time>2018-08-06T10:22:22Z</time>
      </trkpt>
      <trkpt lat="45.93494" lon="6.5113">
        <ele>1720.28</ele>
        <time>2018-08-06T10:22:32Z</time>
      </trkpt>
      <trkpt lat="45.93501" lon="6.51106">
        <ele>1717.08</ele>
        <time>2018-08-06T10:22:48Z</time>
      </trkpt>
      <trkpt lat="45.9352" lon="6.51107">
        <ele>1714.29</ele>
        <time>2018-08-06T10:23:11Z</time>
      </trkpt>
      <trkpt lat="45.93533" lon="6.51088">
        <ele>1712.84</ele>
        <time>2018-08-06T10:23:29Z</time>
      </trkpt>
      <trkpt lat="45.93547" lon="6.5107">
        <ele>1709.97</ele>
        <time>2018-08-06T10:23:44Z</time>
      </trkpt>
      <trkpt lat="45.93562" lon="6.51053">
        <ele>1705.5</ele>
        <time>2018-08-06T10:24:03Z</time>
      </trkpt>
      <trkpt lat="45.93576" lon="6.51031">
        <ele>1701.06</ele>
        <time>2018-08-06T10:24:23Z</time>
      </trkpt>
      <trkpt lat="45.93586" lon="6.51007">
        <ele>1696.22</ele>
        <time>2018-08-06T10:24:43Z</time>
      </trkpt>
      <trkpt lat="45.936" lon="6.50991">
        <ele>1692.99</ele>
        <time>2018-08-06T10:24:59Z</time>
      </trkpt>
      <trkpt lat="45.93611" lon="6.50968">
        <ele>1690.38</ele>
        <time>2018-08-06T10:25:14Z</time>
      </trkpt>
      <trkpt lat="45.93619" lon="6.50945">
        <ele>1688.48</ele>
        <time>2018-08-06T10:25:31Z</time>
      </trkpt>
      <trkpt lat="45.93617" lon="6.50918">
        <ele>1687.56</ele>
        <time>2018-08-06T10:25:50Z</time>
      </trkpt>
      <trkpt lat="45.93609" lon="6.5089">
        <ele>1684.43</ele>
        <time>2018-08-06T10:26:07Z</time>
      </trkpt>
      <trkpt lat="45.9361" lon="6.50858">
        <ele>1683.16</ele>
        <time>2018-08-06T10:26:20Z</time>
      </trkpt>
      <trkpt lat="45.93602" lon="6.50832">
        <ele>1675.11</ele>
        <time>2018-08-06T10:26:55Z</time>
      </trkpt>
      <trkpt lat="45.93594" lon="6.50809">
        <ele>1672.64</ele>
        <time>2018-08-06T10:27:06Z</time>
      </trkpt>
      <trkpt lat="45.93595" lon="6.5078">
        <ele>1669.16</ele>
        <time>2018-08-06T10:27:19Z</time>
      </trkpt>
      <trkpt lat="45.93599" lon="6.50753">
        <ele>1663.15</ele>
        <time>2018-08-06T10:27:42Z</time>
      </trkpt>
      <trkpt lat="45.93589" lon="6.50729">
        <ele>1659.97</ele>
        <time>2018-08-06T10:27:57Z</time>
      </trkpt>
      <trkpt lat="45.93594" lon="6.50705">
        <ele>1655.39</ele>
        <time>2018-08-06T10:28:15Z</time>
      </trkpt>
      <trkpt lat="45.93595" lon="6.50678">
        <ele>1653.1</ele>
        <time>2018-08-06T10:28:28Z</time>
      </trkpt>
      <trkpt lat="45.93599" lon="6.50652">
        <ele>1651.41</ele>
        <time>2018-08-06T10:28:46Z</time>
      </trkpt>
      <trkpt lat="45.93615" lon="6.5064">
        <ele>1636.71</ele>
        <time>2018-08-06T10:29:52Z</time>
      </trkpt>
      <trkpt lat="45.93599" lon="6.50627">
        <ele>1627.76</ele>
        <time>2018-08-06T10:43:09Z</time>
      </trkpt>
      <trkpt lat="45.93581" lon="6.50616">
        <ele>1627.41</ele>
        <time>2018-08-06T10:43:40Z</time>
      </trkpt>
      <trkpt lat="45.93563" lon="6.50623">
        <ele>1627.06</ele>
        <time>2018-08-06T10:44:00Z</time>
      </trkpt>
      <trkpt lat="45.93547" lon="6.5061">
        <ele>1624.38</ele>
        <time>2018-08-06T10:44:17Z</time>
      </trkpt>
      <trkpt lat="45.93527" lon="6.50613">
        <ele>1622.11</ele>
        <time>2018-08-06T10:44:35Z</time>
      </trkpt>
      <trkpt lat="45.9351" lon="6.50623">
        <ele>1619.78</ele>
        <time>2018-08-06T10:44:49Z</time>
      </trkpt>
      <trkpt lat="45.935" lon="6.50647">
        <ele>1613.11</ele>
        <time>2018-08-06T10:45:10Z</time>
      </trkpt>
      <trkpt lat="45.93487" lon="6.50628">
        <ele>1605.76</ele>
        <time>2018-08-06T10:45:36Z</time>
      </trkpt>
      <trkpt lat="45.93479" lon="6.50605">
        <ele>1603.3</ele>
        <time>2018-08-06T10:45:51Z</time>
      </trkpt>
      <trkpt lat="45.93465" lon="6.50621">
        <ele>1600.94</ele>
        <time>2018-08-06T10:46:06Z</time>
      </trkpt>
      <trkpt lat="45.93447" lon="6.50631">
        <ele>1597.22</ele>
        <time>2018-08-06T10:46:22Z</time>
      </trkpt>
      <trkpt lat="45.93445" lon="6.50603">
        <ele>1593.58</ele>
        <time>2018-08-06T10:46:59Z</time>
      </trkpt>
      <trkpt lat="45.9345" lon="6.50577">
        <ele>1591.55</ele>
        <time>2018-08-06T10:47:16Z</time>
      </trkpt>
      <trkpt lat="45.93449" lon="6.50549">
        <ele>1589.99</ele>
        <time>2018-08-06T10:47:31Z</time>
      </trkpt>
      <trkpt lat="45.93452" lon="6.50521">
        <ele>1586.8</ele>
        <time>2018-08-06T10:47:49Z</time>
      </trkpt>
      <trkpt lat="45.93457" lon="6.50495">
        <ele>1584.26</ele>
        <time>2018-08-06T10:48:01Z</time>
      </trkpt>
      <trkpt lat="45.9346" lon="6.50467">
        <ele>1580.86</ele>
        <time>2018-08-06T10:48:18Z</time>
      </trkpt>
      <trkpt lat="45.93471" lon="6.50446">
        <ele>1577.28</ele>
        <time>2018-08-06T10:48:36Z</time>
      </trkpt>
      <trkpt lat="45.93477" lon="6.50421">
        <ele>1575.42</ele>
        <time>2018-08-06T10:48:49Z</time>
      </trkpt>
      <trkpt lat="45.93486" lon="6.50398">
        <ele>1571.85</ele>
        <time>2018-08-06T10:49:07Z</time>
      </trkpt>
      <trkpt lat="45.93488" lon="6.50372">
        <ele>1563.87</ele>
        <time>2018-08-06T10:49:42Z</time>
      </trkpt>
      <trkpt lat="45.93478" lon="6.50348">
        <ele>1559.87</ele>
        <time>2018-08-06T10:49:55Z</time>
      </trkpt>
      <trkpt lat="45.93471" lon="6.50323">
        <ele>1557.1</ele>
        <time>2018-08-06T10:50:09Z</time>
      </trkpt>
      <trkpt lat="45.93466" lon="6.50295">
        <ele>1552.73</ele>
        <time>2018-08-06T10:50:28Z</time>
      </trkpt>
      <trkpt lat="45.93453" lon="6.50274">
        <ele>1547.58</ele>
        <time>2018-08-06T10:50:46Z</time>
      </trkpt>
      <trkpt lat="45.93437" lon="6.50261">
        <ele>1544.2</ele>
        <time>2018-08-06T10:50:58Z</time>
      </trkpt>
      <trkpt lat="45.9342" lon="6.50248">
        <ele>1541.2</ele>
        <time>2018-08-06T10:51:10Z</time>
      </trkpt>
      <trkpt lat="45.93407" lon="6.50227">
        <ele>1536.23</ele>
        <time>2018-08-06T10:51:30Z</time>
      </trkpt>
      <trkpt lat="45.934" lon="6.50203">
        <ele>1532.89</ele>
        <time>2018-08-06T10:51:48Z</time>
      </trkpt>
      <trkpt lat="45.93384" lon="6.5019">
        <ele>1530.92</ele>
        <time>2018-08-06T10:52:00Z</time>
      </trkpt>
      <trkpt lat="45.93367" lon="6.50178">
        <ele>1527.94</ele>
        <time>2018-08-06T10:52:21Z</time>
      </trkpt>
      <trkpt lat="45.93352" lon="6.5016">
        <ele>1526.21</ele>
        <time>2018-08-06T10:52:33Z</time>
      </trkpt>
      <trkpt lat="45.93343" lon="6.50137">
        <ele>1523.54</ele>
        <time>2018-08-06T10:52:51Z</time>
      </trkpt>
      <trkpt lat="45.93329" lon="6.50118">
        <ele>1520.36</ele>
        <time>2018-08-06T10:53:06Z</time>
      </trkpt>
      <trkpt lat="45.93313" lon="6.50104">
        <ele>1517.23</ele>
        <time>2018-08-06T10:53:25Z</time>
      </trkpt>
      <trkpt lat="45.93297" lon="6.50087">
        <ele>1514.35</ele>
        <time>2018-08-06T10:53:48Z</time>
      </trkpt>
      <trkpt lat="45.93282" lon="6.50072">
        <ele>1511.2</ele>
        <time>2018-08-06T10:54:05Z</time>
      </trkpt>
      <trkpt lat="45.9327" lon="6.50052">
        <ele>1509.92</ele>
        <time>2018-08-06T10:54:18Z</time>
      </trkpt>
      <trkpt lat="45.93253" lon="6.50039">
        <ele>1508.66</ele>
        <time>2018-08-06T10:54:31Z</time>
      </trkpt>
      <trkpt lat="45.93236" lon="6.50025">
        <ele>1507.23</ele>
        <time>2018-08-06T10:54:51Z</time>
      </trkpt>
      <trkpt lat="45.93222" lon="6.50007">
        <ele>1507.89</ele>
        <time>2018-08-06T10:55:14Z</time>
      </trkpt>
      <trkpt lat="45.93206" lon="6.49992">
        <ele>1507.94</ele>
        <time>2018-08-06T10:55:27Z</time>
      </trkpt>
      <trkpt lat="45.93197" lon="6.4997">
        <ele>1508.59</ele>
        <time>2018-08-06T10:55:40Z</time>
      </trkpt>
      <trkpt lat="45.93183" lon="6.49953">
        <ele>1507.8</ele>
        <time>2018-08-06T10:55:53Z</time>
      </trkpt>
      <trkpt lat="45.93167" lon="6.49939">
        <ele>1505.91</ele>
        <time>2018-08-06T10:56:08Z</time>
      </trkpt>
      <trkpt lat="45.93149" lon="6.4993">
        <ele>1505.25</ele>
        <time>2018-08-06T10:56:30Z</time>
      </trkpt>
      <trkpt lat="45.93133" lon="6.49915">
        <ele>1504.7</ele>
        <time>2018-08-06T10:56:45Z</time>
      </trkpt>
      <trkpt lat="45.93127" lon="6.4989">
        <ele>1502.51</ele>
        <time>2018-08-06T10:57:00Z</time>
      </trkpt>
      <trkpt lat="45.93124" lon="6.49864">
        <ele>1499.53</ele>
        <time>2018-08-06T10:57:23Z</time>
      </trkpt>
      <trkpt lat="45.93126" lon="6.49837">
        <ele>1498.65</ele>
        <time>2018-08-06T10:57:35Z</time>
      </trkpt>
      <trkpt lat="45.93116" lon="6.49814">
        <ele>1497.88</ele>
        <time>2018-08-06T10:57:49Z</time>
      </trkpt>
      <trkpt lat="45.93109" lon="6.4979">
        <ele>1496.1</ele>
        <time>2018-08-06T10:58:12Z</time>
      </trkpt>
      <trkpt lat="45.93092" lon="6.49775">
        <ele>1494.96</ele>
        <time>2018-08-06T10:58:24Z</time>
      </trkpt>
      <trkpt lat="45.93079" lon="6.49757">
        <ele>1494.36</ele>
        <time>2018-08-06T10:58:39Z</time>
      </trkpt>
      <trkpt lat="45.93063" lon="6.49739">
        <ele>1494.83</ele>
        <time>2018-08-06T10:59:00Z</time>
      </trkpt>
      <trkpt lat="45.93046" lon="6.49725">
        <ele>1494.49</ele>
        <time>2018-08-06T10:59:11Z</time>
      </trkpt>
      <trkpt lat="45.93028" lon="6.4972">
        <ele>1493.73</ele>
        <time>2018-08-06T10:59:30Z</time>
      </trkpt>
      <trkpt lat="45.93008" lon="6.49712">
        <ele>1491.62</ele>
        <time>2018-08-06T10:59:49Z</time>
      </trkpt>
      <trkpt lat="45.92993" lon="6.49694">
        <ele>1490.98</ele>
        <time>2018-08-06T10:59:56Z</time>
      </trkpt>
      <trkpt lat="45.92982" lon="6.49672">
        <ele>1489.01</ele>
        <time>2018-08-06T11:00:14Z</time>
      </trkpt>
      <trkpt lat="45.92964" lon="6.49664">
        <ele>1492.31</ele>
        <time>2018-08-06T11:00:34Z</time>
      </trkpt>
      <trkpt lat="45.92951" lon="6.49644">
        <ele>1493.56</ele>
        <time>2018-08-06T11:00:46Z</time>
      </trkpt>
      <trkpt lat="45.92938" lon="6.49626">
        <ele>1492.85</ele>
        <time>2018-08-06T11:01:07Z</time>
      </trkpt>
      <trkpt lat="45.92922" lon="6.49612">
        <ele>1492.38</ele>
        <time>2018-08-06T11:01:27Z</time>
      </trkpt>
      <trkpt lat="45.92906" lon="6.49599">
        <ele>1492.74</ele>
        <time>2018-08-06T11:01:35Z</time>
      </trkpt>
      <trkpt lat="45.9289" lon="6.49588">
        <ele>1492.22</ele>
        <time>2018-08-06T11:01:57Z</time>
      </trkpt>
      <trkpt lat="45.92875" lon="6.49572">
        <ele>1491.55</ele>
        <time>2018-08-06T11:02:16Z</time>
      </trkpt>
      <trkpt lat="45.92862" lon="6.49552">
        <ele>1490.41</ele>
        <time>2018-08-06T11:02:35Z</time>
      </trkpt>
      <trkpt lat="45.92849" lon="6.49532">
        <ele>1490.56</ele>
        <time>2018-08-06T11:02:57Z</time>
      </trkpt>
      <trkpt lat="45.92834" lon="6.49516">
        <ele>1488.51</ele>
        <time>2018-08-06T11:04:11Z</time>
      </trkpt>
      <trkpt lat="45.92817" lon="6.49506">
        <ele>1489.09</ele>
        <time>2018-08-06T11:04:35Z</time>
      </trkpt>
      <trkpt lat="45.928" lon="6.49496">
        <ele>1488.94</ele>
        <time>2018-08-06T11:04:53Z</time>
      </trkpt>
      <trkpt lat="45.92783" lon="6.49489">
        <ele>1488.05</ele>
        <time>2018-08-06T11:05:16Z</time>
      </trkpt>
      <trkpt lat="45.92768" lon="6.49475">
        <ele>1489.59</ele>
        <time>2018-08-06T11:05:37Z</time>
      </trkpt>
      <trkpt lat="45.92755" lon="6.49456">
        <ele>1490.86</ele>
        <time>2018-08-06T11:05:52Z</time>
      </trkpt>
      <trkpt lat="45.92743" lon="6.49434">
        <ele>1491.52</ele>
        <time>2018-08-06T11:06:07Z</time>
      </trkpt>
      <trkpt lat="45.92732" lon="6.49411">
        <ele>1491.06</ele>
        <time>2018-08-06T11:06:20Z</time>
      </trkpt>
      <trkpt lat="45.92726" lon="6.49386">
        <ele>1490.36</ele>
        <time>2018-08-06T11:06:33Z</time>
      </trkpt>
      <trkpt lat="45.92715" lon="6.49365">
        <ele>1489.05</ele>
        <time>2018-08-06T11:06:53Z</time>
      </trkpt>
      <trkpt lat="45.92709" lon="6.49338">
        <ele>1487</ele>
        <time>2018-08-06T11:07:06Z</time>
      </trkpt>
      <trkpt lat="45.92704" lon="6.49312">
        <ele>1485.21</ele>
        <time>2018-08-06T11:07:21Z</time>
      </trkpt>
      <trkpt lat="45.92692" lon="6.49291">
        <ele>1482.53</ele>
        <time>2018-08-06T11:07:47Z</time>
      </trkpt>
      <trkpt lat="45.92675" lon="6.49282">
        <ele>1481.42</ele>
        <time>2018-08-06T11:07:58Z</time>
      </trkpt>
      <trkpt lat="45.92658" lon="6.49271">
        <ele>1480.43</ele>
        <time>2018-08-06T11:08:11Z</time>
      </trkpt>
      <trkpt lat="45.92641" lon="6.49259">
        <ele>1480.01</ele>
        <time>2018-08-06T11:08:26Z</time>
      </trkpt>
      <trkpt lat="45.92627" lon="6.49243">
        <ele>1480.41</ele>
        <time>2018-08-06T11:08:39Z</time>
      </trkpt>
      <trkpt lat="45.92611" lon="6.49228">
        <ele>1480.58</ele>
        <time>2018-08-06T11:08:57Z</time>
      </trkpt>
      <trkpt lat="45.92592" lon="6.49226">
        <ele>1480.6</ele>
        <time>2018-08-06T11:09:12Z</time>
      </trkpt>
      <trkpt lat="45.92573" lon="6.49225">
        <ele>1480.86</ele>
        <time>2018-08-06T11:09:29Z</time>
      </trkpt>
      <trkpt lat="45.92555" lon="6.49222">
        <ele>1481.97</ele>
        <time>2018-08-06T11:09:44Z</time>
      </trkpt>
      <trkpt lat="45.92537" lon="6.49217">
        <ele>1481.8</ele>
        <time>2018-08-06T11:10:01Z</time>
      </trkpt>
      <trkpt lat="45.9252" lon="6.49207">
        <ele>1481.86</ele>
        <time>2018-08-06T11:10:18Z</time>
      </trkpt>
      <trkpt lat="45.92503" lon="6.49198">
        <ele>1482.83</ele>
        <time>2018-08-06T11:10:31Z</time>
      </trkpt>
      <trkpt lat="45.92488" lon="6.49183">
        <ele>1483.1</ele>
        <time>2018-08-06T11:10:44Z</time>
      </trkpt>
      <trkpt lat="45.92474" lon="6.49164">
        <ele>1483.85</ele>
        <time>2018-08-06T11:11:01Z</time>
      </trkpt>
      <trkpt lat="45.9246" lon="6.49146">
        <ele>1484.51</ele>
        <time>2018-08-06T11:11:21Z</time>
      </trkpt>
      <trkpt lat="45.92449" lon="6.49126">
        <ele>1485.78</ele>
        <time>2018-08-06T11:11:37Z</time>
      </trkpt>
      <trkpt lat="45.92432" lon="6.49114">
        <ele>1486.65</ele>
        <time>2018-08-06T11:11:51Z</time>
      </trkpt>
      <trkpt lat="45.92413" lon="6.49116">
        <ele>1487.49</ele>
        <time>2018-08-06T11:12:06Z</time>
      </trkpt>
      <trkpt lat="45.92395" lon="6.49117">
        <ele>1489.06</ele>
        <time>2018-08-06T11:12:23Z</time>
      </trkpt>
      <trkpt lat="45.92377" lon="6.49114">
        <ele>1489.47</ele>
        <time>2018-08-06T11:12:37Z</time>
      </trkpt>
      <trkpt lat="45.92359" lon="6.49103">
        <ele>1489.38</ele>
        <time>2018-08-06T11:12:55Z</time>
      </trkpt>
      <trkpt lat="45.92346" lon="6.49083">
        <ele>1487.43</ele>
        <time>2018-08-06T11:13:11Z</time>
      </trkpt>
      <trkpt lat="45.9233" lon="6.49069">
        <ele>1485.59</ele>
        <time>2018-08-06T11:13:28Z</time>
      </trkpt>
      <trkpt lat="45.92311" lon="6.49061">
        <ele>1483.56</ele>
        <time>2018-08-06T11:13:41Z</time>
      </trkpt>
      <trkpt lat="45.92294" lon="6.49051">
        <ele>1480.73</ele>
        <time>2018-08-06T11:13:58Z</time>
      </trkpt>
      <trkpt lat="45.92278" lon="6.49034">
        <ele>1477.46</ele>
        <time>2018-08-06T11:14:12Z</time>
      </trkpt>
      <trkpt lat="45.92265" lon="6.49016">
        <ele>1474.33</ele>
        <time>2018-08-06T11:14:28Z</time>
      </trkpt>
      <trkpt lat="45.9225" lon="6.49">
        <ele>1471.48</ele>
        <time>2018-08-06T11:14:43Z</time>
      </trkpt>
      <trkpt lat="45.92237" lon="6.48982">
        <ele>1469.57</ele>
        <time>2018-08-06T11:14:59Z</time>
      </trkpt>
      <trkpt lat="45.92229" lon="6.48958">
        <ele>1468.62</ele>
        <time>2018-08-06T11:15:12Z</time>
      </trkpt>
      <trkpt lat="45.92216" lon="6.48938">
        <ele>1467.43</ele>
        <time>2018-08-06T11:15:27Z</time>
      </trkpt>
      <trkpt lat="45.92201" lon="6.4892">
        <ele>1466.7</ele>
        <time>2018-08-06T11:15:42Z</time>
      </trkpt>
      <trkpt lat="45.92187" lon="6.48903">
        <ele>1466.84</ele>
        <time>2018-08-06T11:15:57Z</time>
      </trkpt>
      <trkpt lat="45.92173" lon="6.48885">
        <ele>1466</ele>
        <time>2018-08-06T11:16:09Z</time>
      </trkpt>
      <trkpt lat="45.9216" lon="6.48864">
        <ele>1463.77</ele>
        <time>2018-08-06T11:16:27Z</time>
      </trkpt>
      <trkpt lat="45.9217" lon="6.4884">
        <ele>1461.45</ele>
        <time>2018-08-06T11:16:46Z</time>
      </trkpt>
      <trkpt lat="45.92179" lon="6.48815">
        <ele>1461.3</ele>
        <time>2018-08-06T11:17:04Z</time>
      </trkpt>
      <trkpt lat="45.92176" lon="6.4879">
        <ele>1462.21</ele>
        <time>2018-08-06T11:17:18Z</time>
      </trkpt>
      <trkpt lat="45.92167" lon="6.48764">
        <ele>1462.15</ele>
        <time>2018-08-06T11:17:37Z</time>
      </trkpt>
      <trkpt lat="45.92161" lon="6.4874">
        <ele>1461.3</ele>
        <time>2018-08-06T11:18:00Z</time>
      </trkpt>
      <trkpt lat="45.92155" lon="6.48713">
        <ele>1461.46</ele>
        <time>2018-08-06T11:18:13Z</time>
      </trkpt>
      <trkpt lat="45.92141" lon="6.48694">
        <ele>1462.76</ele>
        <time>2018-08-06T11:18:30Z</time>
      </trkpt>
      <trkpt lat="45.92128" lon="6.48675">
        <ele>1462.86</ele>
        <time>2018-08-06T11:18:49Z</time>
      </trkpt>
      <trkpt lat="45.92121" lon="6.4865">
        <ele>1462.83</ele>
        <time>2018-08-06T11:19:02Z</time>
      </trkpt>
      <trkpt lat="45.92124" lon="6.48625">
        <ele>1464.51</ele>
        <time>2018-08-06T11:19:17Z</time>
      </trkpt>
      <trkpt lat="45.9213" lon="6.486">
        <ele>1466.23</ele>
        <time>2018-08-06T11:19:31Z</time>
      </trkpt>
      <trkpt lat="45.92137" lon="6.48576">
        <ele>1468.77</ele>
        <time>2018-08-06T11:19:45Z</time>
      </trkpt>
      <trkpt lat="45.92144" lon="6.48551">
        <ele>1470.41</ele>
        <time>2018-08-06T11:19:59Z</time>
      </trkpt>
      <trkpt lat="45.92146" lon="6.48524">
        <ele>1471.18</ele>
        <time>2018-08-06T11:20:15Z</time>
      </trkpt>
      <trkpt lat="45.92155" lon="6.48501">
        <ele>1471.62</ele>
        <time>2018-08-06T11:20:32Z</time>
      </trkpt>
      <trkpt lat="45.92169" lon="6.48481">
        <ele>1471.08</ele>
        <time>2018-08-06T11:20:48Z</time>
      </trkpt>
      <trkpt lat="45.92185" lon="6.48465">
        <ele>1470.2</ele>
        <time>2018-08-06T11:21:02Z</time>
      </trkpt>
      <trkpt lat="45.92197" lon="6.48445">
        <ele>1468.01</ele>
        <time>2018-08-06T11:21:20Z</time>
      </trkpt>
      <trkpt lat="45.92214" lon="6.48432">
        <ele>1464.42</ele>
        <time>2018-08-06T11:21:36Z</time>
      </trkpt>
      <trkpt lat="45.92229" lon="6.48416">
        <ele>1460.99</ele>
        <time>2018-08-06T11:21:54Z</time>
      </trkpt>
      <trkpt lat="45.92247" lon="6.48409">
        <ele>1458.74</ele>
        <time>2018-08-06T11:22:09Z</time>
      </trkpt>
      <trkpt lat="45.92264" lon="6.48399">
        <ele>1456.47</ele>
        <time>2018-08-06T11:22:25Z</time>
      </trkpt>
      <trkpt lat="45.92275" lon="6.48401">
        <ele>1454.56</ele>
        <time>2018-08-06T11:23:09Z</time>
      </trkpt>
    </trkseg>
  </trk>
</gpx>